Observation data for Persimmon Gap on 01/21/2019      Previous  Date  Next       Current Mesonet Observations  Soil Data  Daily Summary Page  Observations in Plain Language
KPG1 210600Z 36004KT 09/M02 A3011 RMK A01 T00931020  RH  045%=      5-min Rain = 0
KPG1 210601Z 00004KT 10/M02 A3011 RMK A01 T00951020  RH  044%=      5-min Rain = 0
KPG1 210602Z 36005KT 10/M02 A3011 RMK A01 T00961020  RH  044%=      5-min Rain = 0
KPG1 210603Z 01005KT 10/M02 A3011 RMK A01 T00971022  RH  043%=      5-min Rain = 0
KPG1 210604Z 36005KT 10/M02 A3011 RMK A01 T00991022  RH  043%=      5-min Rain = 0
KPG1 210605Z 00005KT 10/M02 A3011 RMK A01 T01021021  RH  042%=      5-min Rain = 0
KPG1 210606Z 00005KT 10/M02 A3011 RMK A01 T01011022  RH  042%=      5-min Rain = 0
KPG1 210607Z 36004KT 10/M02 A3011 RMK A01 T01001022  RH  042%=      5-min Rain = 0
KPG1 210608Z 00003KT 10/M02 A3011 RMK A01 T01011021  RH  042%=      5-min Rain = 0
KPG1 210609Z 00003KT 09/M02 A3011 RMK A01 T00941023  RH  044%=      5-min Rain = 0
KPG1 210610Z 01004KT 09/M02 A3011 RMK A01 T00881023  RH  046%=      5-min Rain = 0
KPG1 210611Z 01004KT 08/M02 A3011 RMK A01 T00831022  RH  047%=      5-min Rain = 0
KPG1 210612Z 00003KT 08/M02 A3011 RMK A01 T00811021  RH  048%=      5-min Rain = 0
KPG1 210613Z 01003KT 08/M02 A3011 RMK A01 T00791021  RH  049%=      5-min Rain = 0
KPG1 210614Z 02003KT 08/M02 A3011 RMK A01 T00791021  RH  049%=      5-min Rain = 0
KPG1 210615Z 03003KT 08/M02 A3011 RMK A01 T00811021  RH  049%=      5-min Rain = 0
KPG1 210616Z 04002KT 08/M02 A3011 RMK A01 T00831020  RH  048%=      5-min Rain = 0
KPG1 210617Z 06002KT 08/M02 A3011 RMK A01 T00831019  RH  049%=      5-min Rain = 0
KPG1 210618Z 07002KT 08/M02 A3011 RMK A01 T00801019  RH  049%=      5-min Rain = 0
KPG1 210619Z 07002KT 08/M02 A3011 RMK A01 T00781020  RH  050%=      5-min Rain = 0
KPG1 210620Z 07001KT 08/M02 A3011 RMK A01 T00771020  RH  050%=      5-min Rain = 0
KPG1 210621Z 09001KT 08/M02 A3011 RMK A01 T00761020  RH  050%=      5-min Rain = 0
KPG1 210622Z 09001KT 08/M03 A3011 RMK A01 T00751025  RH  049%=      5-min Rain = 0
KPG1 210623Z 06001KT 07/M03 A3011 RMK A01 T00721027  RH  050%=      5-min Rain = 0
KPG1 210624Z 07001KT 07/M03 A3011 RMK A01 T00701027  RH  050%=      5-min Rain = 0
KPG1 210625Z 00000KT 07/M03 A3011 RMK A01 T00701028  RH  050%=      5-min Rain = 0
KPG1 210626Z 00000KT 07/M03 A3011 RMK A01 T00681028  RH  050%=      5-min Rain = 0
KPG1 210627Z 00000KT 07/M03 A3011 RMK A01 T00671028  RH  051%=      5-min Rain = 0
KPG1 210628Z 00000KT 07/M03 A301 RMK A01 T00661029  RH  051%=      5-min Rain = 0
KPG1 210629Z 00000KT 07/M03 A301 RMK A01 T00661030  RH  050%=      5-min Rain = 0
KPG1 210630Z 00000KT 07/M03 A301 RMK A01 T00661030  RH  050%=      5-min Rain = 0
KPG1 210631Z 00000KT 07/M03 A301 RMK A01 T00661030  RH  050%=      5-min Rain = 0
KPG1 210632Z 00000KT 07/M03 A301 RMK A01 T00661030  RH  050%=      5-min Rain = 0
KPG1 210633Z 06000KT 07/M03 A301 RMK A01 T00671030  RH  050%=      5-min Rain = 0
KPG1 210634Z 06001KT 07/M03 A301 RMK A01 T00671030  RH  050%=      5-min Rain = 0
KPG1 210635Z 06001KT 07/M03 A301 RMK A01 T00671031  RH  050%=      5-min Rain = 0
KPG1 210636Z 06000KT 07/M03 A301 RMK A01 T00671031  RH  050%=      5-min Rain = 0
KPG1 210637Z 00000KT 07/M03 A301 RMK A01 T00671030  RH  050%=      5-min Rain = 0
KPG1 210638Z 00000KT 07/M03 A301 RMK A01 T00671030  RH  050%=      5-min Rain = 0
KPG1 210639Z 14001KT 07/M03 A301 RMK A01 T00671026  RH  051%=      5-min Rain = 0
KPG1 210640Z 16001KT 07/M03 A301 RMK A01 T00671026  RH  051%=      5-min Rain = 0
KPG1 210641Z 17001KT 07/M03 A301 RMK A01 T00671027  RH  051%=      5-min Rain = 0
KPG1 210642Z 22002KT 07/M03 A301 RMK A01 T00671026  RH  051%=      5-min Rain = 0
KPG1 210643Z 23002KT 07/M03 A301 RMK A01 T00671025  RH  052%=      5-min Rain = 0
KPG1 210644Z 22002KT 07/M02 A301 RMK A01 T00671024  RH  052%=      5-min Rain = 0
KPG1 210645Z 22002KT 07/M02 A301 RMK A01 T00651024  RH  053%=      5-min Rain = 0
KPG1 210646Z 22002KT 07/M02 A301 RMK A01 T00651024  RH  053%=      5-min Rain = 0
KPG1 210647Z 23002KT 07/M02 A301 RMK A01 T00661024  RH  053%=      5-min Rain = 0
KPG1 210648Z 23003KT 07/M03 A301 RMK A01 T00661026  RH  052%=      5-min Rain = 0
KPG1 210649Z 22003KT 07/M03 A301 RMK A01 T00661027  RH  051%=      5-min Rain = 0
KPG1 210650Z 22003KT 07/M03 A301 RMK A01 T00671028  RH  051%=      5-min Rain = 0
KPG1 210651Z 21003KT 07/M03 A301 RMK A01 T00671028  RH  051%=      5-min Rain = 0
KPG1 210652Z 22002KT 07/M03 A301 RMK A01 T00681029  RH  050%=      5-min Rain = 0
KPG1 210653Z 22002KT 07/M03 A3009 RMK A01 T00681029  RH  050%=      5-min Rain = 0
KPG1 210654Z 22002KT 07/M03 A3009 RMK A01 T00681028  RH  050%=      5-min Rain = 0
KPG1 210655Z 21002KT 07/M03 A3009 RMK A01 T00681028  RH  050%=      5-min Rain = 0
KPG1 210656Z 21002KT 07/M03 A3009 RMK A01 T00671029  RH  050%=      5-min Rain = 0
KPG1 210657Z 19001KT 07/M03 A3009 RMK A01 T00671029  RH  050%=      5-min Rain = 0
KPG1 210658Z 23001KT 07/M03 A3009 RMK A01 T00671030  RH  050%=      5-min Rain = 0
KPG1 210659Z 21002KT 07/M03 A3009 RMK A01 T00661030  RH  050%=      5-min Rain = 0
KPG1 210700Z 22001KT 07/M03 A3009 RMK A01 T00661030  RH  051%=      5-min Rain = 0
KPG1 210701Z 24002KT 07/M03 A3009 RMK A01 T00651031  RH  050%=      5-min Rain = 0
KPG1 210702Z 25001KT 07/M03 A3009 RMK A01 T00661031  RH  050%=      5-min Rain = 0
KPG1 210703Z 26001KT 07/M03 A3009 RMK A01 T00651031  RH  050%=      5-min Rain = 0
KPG1 210704Z 26000KT 07/M03 A3009 RMK A01 T00651031  RH  050%=      5-min Rain = 0
KPG1 210705Z 00000KT 07/M03 A3009 RMK A01 T00651030  RH  051%=      5-min Rain = 0
KPG1 210706Z 00000KT 06/M03 A3009 RMK A01 T00591028  RH  054%=      5-min Rain = 0
KPG1 210707Z 06001KT 05/M03 A3009 RMK A01 T00521028  RH  056%=      5-min Rain = 0
KPG1 210708Z 07002KT 05/M03 A3009 RMK A01 T00461027  RH  059%=      5-min Rain = 0
KPG1 210709Z 08002KT 04/M03 A3009 RMK A01 T00431026  RH  061%=      5-min Rain = 0
KPG1 210710Z 07002KT 04/M03 A3009 RMK A01 T00411025  RH  062%=      5-min Rain = 0
KPG1 210711Z 06002KT 04/M02 A3009 RMK A01 T00411024  RH  063%=      5-min Rain = 0
KPG1 210712Z 07002KT 04/M02 A3009 RMK A01 T00401024  RH  063%=      5-min Rain = 0
KPG1 210713Z 06001KT 04/M02 A3009 RMK A01 T00401024  RH  063%=      5-min Rain = 0
KPG1 210714Z 06001KT 04/M02 A3009 RMK A01 T00411023  RH  063%=      5-min Rain = 0
KPG1 210715Z 06000KT 04/M02 A3009 RMK A01 T00411023  RH  063%=      5-min Rain = 0
KPG1 210716Z 00000KT 04/M02 A3009 RMK A01 T00421023  RH  063%=      5-min Rain = 0
KPG1 210717Z 00000KT 04/M02 A3009 RMK A01 T00431024  RH  062%=      5-min Rain = 0
KPG1 210718Z 28000KT 05/M02 A3009 RMK A01 T00451024  RH  061%=      5-min Rain = 0
KPG1 210719Z 28001KT 05/M02 A3009 RMK A01 T00481024  RH  060%=      5-min Rain = 0
KPG1 210720Z 29001KT 05/M03 A3009 RMK A01 T00511025  RH  058%=      5-min Rain = 0
KPG1 210721Z 24001KT 05/M03 A3009 RMK A01 T00541025  RH  057%=      5-min Rain = 0
KPG1 210722Z 24001KT 06/M03 A3009 RMK A01 T00561026  RH  056%=      5-min Rain = 0
KPG1 210723Z 26001KT 06/M03 A3009 RMK A01 T00571025  RH  055%=      5-min Rain = 0
KPG1 210724Z 27002KT 06/M03 A3009 RMK A01 T00571025  RH  055%=      5-min Rain = 0
KPG1 210725Z 28001KT 06/M03 A3009 RMK A01 T00571027  RH  055%=      5-min Rain = 0
KPG1 210726Z 27001KT 06/M03 A3009 RMK A01 T00571027  RH  055%=      5-min Rain = 0
KPG1 210727Z 02001KT 06/M03 A3009 RMK A01 T00561027  RH  055%=      5-min Rain = 0
KPG1 210728Z 04001KT 05/M03 A3009 RMK A01 T00521026  RH  057%=      5-min Rain = 0
KPG1 210729Z 05001KT 05/M03 A3009 RMK A01 T00471027  RH  059%=      5-min Rain = 0
KPG1 210730Z 04001KT 04/M03 A3009 RMK A01 T00431026  RH  060%=      5-min Rain = 0
KPG1 210731Z 06001KT 04/M03 A3009 RMK A01 T00421025  RH  062%=      5-min Rain = 0
KPG1 210732Z 07001KT 04/M02 A3009 RMK A01 T00411024  RH  063%=      5-min Rain = 0
KPG1 210733Z 05000KT 04/M02 A3009 RMK A01 T00411024  RH  063%=      5-min Rain = 0
KPG1 210734Z 04000KT 04/M02 A3009 RMK A01 T00411024  RH  063%=      5-min Rain = 0
KPG1 210735Z 04000KT 04/M02 A3009 RMK A01 T00431024  RH  062%=      5-min Rain = 0
KPG1 210736Z 04001KT 04/M02 A3009 RMK A01 T00441024  RH  061%=      5-min Rain = 0
KPG1 210737Z 03001KT 05/M02 A3009 RMK A01 T00451024  RH  061%=      5-min Rain = 0
KPG1 210738Z 02002KT 05/M02 A3009 RMK A01 T00461024  RH  060%=      5-min Rain = 0
KPG1 210739Z 02001KT 05/M03 A3009 RMK A01 T00471025  RH  060%=      5-min Rain = 0
KPG1 210740Z 02001KT 05/M03 A3009 RMK A01 T00501025  RH  058%=      5-min Rain = 0
KPG1 210741Z 02001KT 05/M03 A3009 RMK A01 T00531025  RH  057%=      5-min Rain = 0
KPG1 210742Z 02000KT 06/M03 A3009 RMK A01 T00571026  RH  055%=      5-min Rain = 0
KPG1 210743Z 23000KT 06/M03 A3009 RMK A01 T00611027  RH  053%=      5-min Rain = 0
KPG1 210744Z 22001KT 06/M03 A3009 RMK A01 T00631028  RH  052%=      5-min Rain = 0
KPG1 210745Z 20002KT 07/M03 A3009 RMK A01 T00651030  RH  051%=      5-min Rain = 0
KPG1 210746Z 23002KT 07/M03 A3009 RMK A01 T00681030  RH  050%=      5-min Rain = 0
KPG1 210747Z 22001KT 07/M03 A3009 RMK A01 T00691030  RH  049%=      5-min Rain = 0
KPG1 210748Z 21001KT 07/M03 A3009 RMK A01 T00681028  RH  050%=      5-min Rain = 0
KPG1 210749Z 17000KT 06/M03 A3009 RMK A01 T00591028  RH  053%=      5-min Rain = 0
KPG1 210750Z 29000KT 05/M03 A3009 RMK A01 T00511029  RH  056%=      5-min Rain = 0
KPG1 210751Z 00000KT 05/M03 A3009 RMK A01 T00461028  RH  059%=      5-min Rain = 0
KPG1 210752Z 00000KT 04/M03 A3009 RMK A01 T00441027  RH  060%=      5-min Rain = 0
KPG1 210753Z 03000KT 04/M03 A3009 RMK A01 T00431026  RH  061%=      5-min Rain = 0
KPG1 210754Z 03001KT 04/M03 A3009 RMK A01 T00421025  RH  062%=      5-min Rain = 0
KPG1 210755Z 03001KT 04/M03 A3009 RMK A01 T00411025  RH  062%=      5-min Rain = 0
KPG1 210756Z 03000KT 04/M03 A3009 RMK A01 T00411025  RH  062%=      5-min Rain = 0
KPG1 210757Z 00000KT 04/M03 A3009 RMK A01 T00441025  RH  061%=      5-min Rain = 0
KPG1 210758Z 00000KT 05/M02 A3009 RMK A01 T00471024  RH  060%=      5-min Rain = 0
KPG1 210759Z 00000KT 05/M02 A3009 RMK A01 T00501024  RH  058%=      5-min Rain = 0
KPG1 210800Z 25000KT 05/M03 A3009 RMK A01 T00521025  RH  058%=      5-min Rain = 0
KPG1 210801Z 25001KT 05/M03 A3009 RMK A01 T00531025  RH  057%=      5-min Rain = 0
KPG1 210802Z 25001KT 05/M03 A3009 RMK A01 T00541027  RH  056%=      5-min Rain = 0
KPG1 210803Z 00000KT 06/M03 A3009 RMK A01 T00551028  RH  055%=      5-min Rain = 0
KPG1 210804Z 00000KT 06/M03 A3009 RMK A01 T00561026  RH  055%=      5-min Rain = 0
KPG1 210805Z 00000KT 06/M03 A3009 RMK A01 T00551025  RH  056%=      5-min Rain = 0
KPG1 210806Z 00000KT 05/M03 A3009 RMK A01 T00521026  RH  057%=      5-min Rain = 0
KPG1 210807Z 00000KT 05/M03 A3009 RMK A01 T00491026  RH  058%=      5-min Rain = 0
KPG1 210808Z 00000KT 05/M03 A3009 RMK A01 T00481026  RH  059%=      5-min Rain = 0
KPG1 210809Z 25000KT 05/M03 A3008 RMK A01 T00471026  RH  059%=      5-min Rain = 0
KPG1 210810Z 25000KT 05/M03 A3008 RMK A01 T00461026  RH  060%=      5-min Rain = 0
KPG1 210811Z 00000KT 05/M03 A3008 RMK A01 T00461025  RH  060%=      5-min Rain = 0
KPG1 210812Z 00000KT 05/M03 A3008 RMK A01 T00451026  RH  060%=      5-min Rain = 0
KPG1 210813Z 00000KT 05/M03 A3008 RMK A01 T00461026  RH  059%=      5-min Rain = 0
KPG1 210814Z 00000KT 05/M03 A3008 RMK A01 T00501026  RH  058%=      5-min Rain = 0
KPG1 210815Z 25000KT 05/M03 A3008 RMK A01 T00541027  RH  056%=      5-min Rain = 0
KPG1 210816Z 25001KT 06/M03 A3008 RMK A01 T00581028  RH  054%=      5-min Rain = 0
KPG1 210817Z 25001KT 06/M03 A3008 RMK A01 T00621029  RH  052%=      5-min Rain = 0
KPG1 210818Z 21002KT 06/M03 A3008 RMK A01 T00641029  RH  051%=      5-min Rain = 0
KPG1 210819Z 21003KT 07/M03 A3008 RMK A01 T00651029  RH  051%=      5-min Rain = 0
KPG1 210820Z 19003KT 06/M03 A3008 RMK A01 T00631027  RH  052%=      5-min Rain = 0
KPG1 210821Z 19002KT 06/M03 A3008 RMK A01 T00561028  RH  055%=      5-min Rain = 0
KPG1 210822Z 21003KT 05/M03 A3008 RMK A01 T00511028  RH  057%=      5-min Rain = 0
KPG1 210823Z 20003KT 05/M03 A3008 RMK A01 T00461027  RH  059%=      5-min Rain = 0
KPG1 210824Z 21003KT 04/M03 A3008 RMK A01 T00431027  RH  060%=      5-min Rain = 0
KPG1 210825Z 21002KT 04/M03 A3008 RMK A01 T00401027  RH  061%=      5-min Rain = 0
KPG1 210826Z 21002KT 04/M03 A3008 RMK A01 T00391027  RH  062%=      5-min Rain = 0
KPG1 210827Z 25002KT 04/M03 A3008 RMK A01 T00371027  RH  063%=      5-min Rain = 0
KPG1 210828Z 24002KT 04/M03 A3008 RMK A01 T00371026  RH  063%=      5-min Rain = 0
KPG1 210829Z 26001KT 04/M03 A3008 RMK A01 T00381026  RH  063%=      5-min Rain = 0
KPG1 210830Z 27001KT 04/M03 A3008 RMK A01 T00401026  RH  062%=      5-min Rain = 0
KPG1 210831Z 29002KT 04/M03 A3008 RMK A01 T00421026  RH  061%=      5-min Rain = 0
KPG1 210832Z 29002KT 04/M03 A3008 RMK A01 T00401026  RH  062%=      5-min Rain = 0
KPG1 210833Z 28001KT 04/M03 A3008 RMK A01 T00361027  RH  064%=      5-min Rain = 0
KPG1 210834Z 26000KT 03/M03 A3008 RMK A01 T00331027  RH  065%=      5-min Rain = 0
KPG1 210835Z 26001KT 03/M03 A3008 RMK A01 T00311026  RH  066%=      5-min Rain = 0
KPG1 210836Z 26002KT 03/M03 A3008 RMK A01 T00301025  RH  067%=      5-min Rain = 0
KPG1 210837Z 26001KT 03/M03 A3008 RMK A01 T00301025  RH  067%=      5-min Rain = 0
KPG1 210838Z 22002KT 03/M03 A3008 RMK A01 T00331025  RH  066%=      5-min Rain = 0
KPG1 210839Z 21002KT 04/M03 A3009 RMK A01 T00361025  RH  065%=      5-min Rain = 0
KPG1 210840Z 19004KT 04/M03 A3008 RMK A01 T00391025  RH  063%=      5-min Rain = 0
KPG1 210841Z 19004KT 04/M02 A3008 RMK A01 T00401024  RH  063%=      5-min Rain = 0
KPG1 210842Z 20003KT 04/M03 A3008 RMK A01 T00401025  RH  063%=      5-min Rain = 0
KPG1 210843Z 21003KT 04/M03 A3008 RMK A01 T00391025  RH  063%=      5-min Rain = 0
KPG1 210844Z 22003KT 04/M03 A3008 RMK A01 T00381025  RH  063%=      5-min Rain = 0
KPG1 210845Z 22003KT 04/M03 A3008 RMK A01 T00371025  RH  064%=      5-min Rain = 0
KPG1 210846Z 22003KT 03/M03 A3008 RMK A01 T00341026  RH  065%=      5-min Rain = 0
KPG1 210847Z 22002KT 03/M03 A3008 RMK A01 T00331026  RH  065%=      5-min Rain = 0
KPG1 210848Z 23002KT 03/M03 A3008 RMK A01 T00331025  RH  066%=      5-min Rain = 0
KPG1 210849Z 21002KT 03/M03 A3008 RMK A01 T00331025  RH  066%=      5-min Rain = 0
KPG1 210850Z 21001KT 03/M03 A3008 RMK A01 T00331025  RH  065%=      5-min Rain = 0
KPG1 210851Z 22001KT 03/M03 A3008 RMK A01 T00341025  RH  065%=      5-min Rain = 0
KPG1 210852Z 20000KT 03/M03 A3008 RMK A01 T00341026  RH  065%=      5-min Rain = 0
KPG1 210853Z 00000KT 04/M03 A3008 RMK A01 T00351026  RH  065%=      5-min Rain = 0
KPG1 210854Z 18000KT 04/M03 A3008 RMK A01 T00351026  RH  064%=      5-min Rain = 0
KPG1 210855Z 00000KT 04/M03 A3007 RMK A01 T00351026  RH  064%=      5-min Rain = 0
KPG1 210856Z 00000KT 04/M03 A3007 RMK A01 T00361026  RH  064%=      5-min Rain = 0
KPG1 210857Z 18000KT 04/M03 A3007 RMK A01 T00351025  RH  065%=      5-min Rain = 0
KPG1 210858Z 18001KT 03/M03 A3008 RMK A01 T00331026  RH  065%=      5-min Rain = 0
KPG1 210859Z 18000KT 03/M03 A3007 RMK A01 T00331026  RH  065%=      5-min Rain = 0
KPG1 210900Z 00000KT 03/M03 A3007 RMK A01 T00321025  RH  066%=      5-min Rain = 0
KPG1 210901Z 00000KT 03/M03 A3007 RMK A01 T00301025  RH  067%=      5-min Rain = 0
KPG1 210902Z 00000KT 03/M03 A3007 RMK A01 T00301025  RH  067%=      5-min Rain = 0
KPG1 210903Z 18000KT 03/M03 A3007 RMK A01 T00291025  RH  068%=      5-min Rain = 0
KPG1 210904Z 18000KT 03/M03 A3007 RMK A01 T00291025  RH  068%=      5-min Rain = 0
KPG1 210905Z 00000KT 03/M02 A3007 RMK A01 T00291024  RH  068%=      5-min Rain = 0
KPG1 210906Z 29001KT 03/M03 A3007 RMK A01 T00291025  RH  068%=      5-min Rain = 0
KPG1 210907Z 28001KT 03/M03 A3007 RMK A01 T00281025  RH  068%=      5-min Rain = 0
KPG1 210908Z 28002KT 03/M02 A3007 RMK A01 T00281024  RH  068%=      5-min Rain = 0
KPG1 210909Z 28001KT 03/M02 A3007 RMK A01 T00291023  RH  069%=      5-min Rain = 0
KPG1 210910Z 05001KT 03/M02 A3007 RMK A01 T00271024  RH  069%=      5-min Rain = 0
KPG1 210911Z 05002KT 02/M03 A3007 RMK A01 T00231025  RH  070%=      5-min Rain = 0
KPG1 210912Z 06002KT 02/M02 A3007 RMK A01 T00211024  RH  072%=      5-min Rain = 0
KPG1 210913Z 06002KT 02/M02 A3007 RMK A01 T00191024  RH  073%=      5-min Rain = 0
KPG1 210914Z 06002KT 02/M02 A3007 RMK A01 T00181024  RH  074%=      5-min Rain = 0
KPG1 210915Z 05001KT 02/M02 A3007 RMK A01 T00181023  RH  074%=      5-min Rain = 0
KPG1 210916Z 06001KT 02/M02 A3007 RMK A01 T00181023  RH  074%=      5-min Rain = 0
KPG1 210917Z 06000KT 02/M02 A3007 RMK A01 T00181023  RH  074%=      5-min Rain = 0
KPG1 210918Z 27001KT 02/M02 A3007 RMK A01 T00201022  RH  074%=      5-min Rain = 0
KPG1 210919Z 25002KT 02/M02 A3007 RMK A01 T00241022  RH  072%=      5-min Rain = 0
KPG1 210920Z 24002KT 03/M02 A3007 RMK A01 T00291022  RH  069%=      5-min Rain = 0
KPG1 210921Z 24003KT 03/M02 A3007 RMK A01 T00321023  RH  068%=      5-min Rain = 0
KPG1 210922Z 24002KT 04/M02 A3006 RMK A01 T00351023  RH  066%=      5-min Rain = 0
KPG1 210923Z 23002KT 04/M02 A3006 RMK A01 T00391023  RH  064%=      5-min Rain = 0
KPG1 210924Z 21002KT 04/M03 A3006 RMK A01 T00411025  RH  062%=      5-min Rain = 0
KPG1 210925Z 24002KT 04/M03 A3006 RMK A01 T00431025  RH  061%=      5-min Rain = 0
KPG1 210926Z 21002KT 04/M03 A3006 RMK A01 T00441025  RH  061%=      5-min Rain = 0
KPG1 210927Z 23002KT 04/M03 A3007 RMK A01 T00441025  RH  061%=      5-min Rain = 0
KPG1 210928Z 23002KT 04/M03 A3007 RMK A01 T00441025  RH  061%=      5-min Rain = 0
KPG1 210929Z 22002KT 04/M03 A3007 RMK A01 T00441025  RH  061%=      5-min Rain = 0
KPG1 210930Z 22002KT 04/M03 A3007 RMK A01 T00431026  RH  061%=      5-min Rain = 0
KPG1 210931Z 22002KT 04/M03 A3007 RMK A01 T00431026  RH  061%=      5-min Rain = 0
KPG1 210932Z 23002KT 04/M03 A3006 RMK A01 T00431025  RH  061%=      5-min Rain = 0
KPG1 210933Z 22001KT 04/M03 A3006 RMK A01 T00421026  RH  061%=      5-min Rain = 0
KPG1 210934Z 22001KT 04/M03 A3006 RMK A01 T00421026  RH  061%=      5-min Rain = 0
KPG1 210935Z 23001KT 04/M03 A3006 RMK A01 T00411026  RH  061%=      5-min Rain = 0
KPG1 210936Z 26002KT 04/M03 A3006 RMK A01 T00411026  RH  062%=      5-min Rain = 0
KPG1 210937Z 27002KT 04/M03 A3006 RMK A01 T00401027  RH  062%=      5-min Rain = 0
KPG1 210938Z 27002KT 04/M03 A3006 RMK A01 T00391027  RH  062%=      5-min Rain = 0
KPG1 210939Z 28002KT 04/M03 A3006 RMK A01 T00401027  RH  062%=      5-min Rain = 0
KPG1 210940Z 26001KT 04/M03 A3006 RMK A01 T00401027  RH  062%=      5-min Rain = 0
KPG1 210941Z 26000KT 04/M03 A3006 RMK A01 T00371027  RH  063%=      5-min Rain = 0
KPG1 210942Z 00000KT 03/M03 A3006 RMK A01 T00331027  RH  065%=      5-min Rain = 0
KPG1 210943Z 28001KT 03/M03 A3006 RMK A01 T00311026  RH  066%=      5-min Rain = 0
KPG1 210944Z 29001KT 03/M03 A3006 RMK A01 T00281027  RH  067%=      5-min Rain = 0
KPG1 210945Z 30001KT 03/M03 A3006 RMK A01 T00251026  RH  069%=      5-min Rain = 0
KPG1 210946Z 31001KT 02/M03 A3006 RMK A01 T00241026  RH  070%=      5-min Rain = 0
KPG1 210947Z 29001KT 02/M03 A3006 RMK A01 T00241025  RH  070%=      5-min Rain = 0
KPG1 210948Z 30001KT 03/M02 A3006 RMK A01 T00261024  RH  070%=      5-min Rain = 0
KPG1 210949Z 31000KT 03/M02 A3006 RMK A01 T00291023  RH  069%=      5-min Rain = 0
KPG1 210950Z 31001KT 03/M02 A3006 RMK A01 T00311023  RH  068%=      5-min Rain = 0
KPG1 210951Z 28001KT 03/M02 A3006 RMK A01 T00311024  RH  067%=      5-min Rain = 0
KPG1 210952Z 28001KT 03/M02 A3006 RMK A01 T00321024  RH  067%=      5-min Rain = 0
KPG1 210953Z 27001KT 03/M02 A3006 RMK A01 T00321024  RH  066%=      5-min Rain = 0
KPG1 210954Z 25001KT 03/M03 A3006 RMK A01 T00331025  RH  066%=      5-min Rain = 0
KPG1 210955Z 25001KT 04/M02 A3006 RMK A01 T00351024  RH  065%=      5-min Rain = 0
KPG1 210956Z 25002KT 04/M02 A3006 RMK A01 T00361024  RH  065%=      5-min Rain = 0
KPG1 210957Z 24001KT 04/M02 A3006 RMK A01 T00371024  RH  064%=      5-min Rain = 0
KPG1 210958Z 25001KT 04/M03 A3006 RMK A01 T00381025  RH  063%=      5-min Rain = 0
KPG1 210959Z 26001KT 04/M03 A3006 RMK A01 T00391025  RH  063%=      5-min Rain = 0
KPG1 211000Z 26001KT 04/M03 A3006 RMK A01 T00401025  RH  062%=      5-min Rain = 0
KPG1 211001Z 26001KT 04/M03 A3006 RMK A01 T00411026  RH  062%=      5-min Rain = 0
KPG1 211002Z 26001KT 04/M03 A3006 RMK A01 T00411026  RH  062%=      5-min Rain = 0
KPG1 211003Z 25001KT 04/M03 A3005 RMK A01 T00421026  RH  061%=      5-min Rain = 0
KPG1 211004Z 25002KT 04/M03 A3005 RMK A01 T00421026  RH  061%=      5-min Rain = 0
KPG1 211005Z 26002KT 04/M03 A3005 RMK A01 T00431027  RH  060%=      5-min Rain = 0
KPG1 211006Z 23002KT 04/M03 A3005 RMK A01 T00441027  RH  060%=      5-min Rain = 0
KPG1 211007Z 23002KT 04/M03 A3005 RMK A01 T00431027  RH  060%=      5-min Rain = 0
KPG1 211008Z 22002KT 04/M03 A3005 RMK A01 T00441028  RH  060%=      5-min Rain = 0
KPG1 211009Z 22003KT 04/M03 A3005 RMK A01 T00441028  RH  060%=      5-min Rain = 0
KPG1 211010Z 21003KT 04/M03 A3005 RMK A01 T00441028  RH  059%=      5-min Rain = 0
KPG1 211011Z 22002KT 04/M03 A3005 RMK A01 T00441028  RH  060%=      5-min Rain = 0
KPG1 211012Z 24003KT 04/M03 A3005 RMK A01 T00441027  RH  060%=      5-min Rain = 0
KPG1 211013Z 24002KT 04/M03 A3005 RMK A01 T00421028  RH  060%=      5-min Rain = 0
KPG1 211014Z 23002KT 04/M03 A3005 RMK A01 T00411028  RH  061%=      5-min Rain = 0
KPG1 211015Z 26003KT 04/M03 A3005 RMK A01 T00411028  RH  061%=      5-min Rain = 0
KPG1 211016Z 25002KT 04/M03 A3005 RMK A01 T00421028  RH  060%=      5-min Rain = 0
KPG1 211017Z 22002KT 04/M03 A3005 RMK A01 T00411027  RH  061%=      5-min Rain = 0
KPG1 211018Z 24002KT 04/M03 A3005 RMK A01 T00401028  RH  061%=      5-min Rain = 0
KPG1 211019Z 24002KT 04/M03 A3005 RMK A01 T00411029  RH  061%=      5-min Rain = 0
KPG1 211020Z 25001KT 04/M03 A3005 RMK A01 T00421029  RH  060%=      5-min Rain = 0
KPG1 211021Z 25000KT 04/M03 A3005 RMK A01 T00401028  RH  061%=      5-min Rain = 0
KPG1 211022Z 00000KT 04/M03 A3005 RMK A01 T00361028  RH  063%=      5-min Rain = 0
KPG1 211023Z 00000KT 03/M03 A3005 RMK A01 T00331028  RH  064%=      5-min Rain = 0
KPG1 211024Z 00000KT 03/M03 A3005 RMK A01 T00311028  RH  065%=      5-min Rain = 0
KPG1 211025Z 01000KT 03/M03 A3005 RMK A01 T00291027  RH  066%=      5-min Rain = 0
KPG1 211026Z 02000KT 03/M03 A3005 RMK A01 T00281027  RH  067%=      5-min Rain = 0
KPG1 211027Z 00000KT 03/M03 A3005 RMK A01 T00291027  RH  067%=      5-min Rain = 0
KPG1 211028Z 35000KT 03/M03 A3005 RMK A01 T00301026  RH  067%=      5-min Rain = 0
KPG1 211029Z 00000KT 03/M03 A3005 RMK A01 T00311026  RH  066%=      5-min Rain = 0
KPG1 211030Z 23000KT 03/M03 A3005 RMK A01 T00321027  RH  065%=      5-min Rain = 0
KPG1 211031Z 23001KT 03/M03 A3005 RMK A01 T00341026  RH  065%=      5-min Rain = 0
KPG1 211032Z 23000KT 04/M03 A3005 RMK A01 T00351026  RH  064%=      5-min Rain = 0
KPG1 211033Z 23001KT 04/M03 A3005 RMK A01 T00351027  RH  064%=      5-min Rain = 0
KPG1 211034Z 20001KT 04/M03 A3005 RMK A01 T00361027  RH  064%=      5-min Rain = 0
KPG1 211035Z 18001KT 04/M03 A3005 RMK A01 T00361027  RH  063%=      5-min Rain = 0
KPG1 211036Z 18000KT 04/M03 A3005 RMK A01 T00371028  RH  063%=      5-min Rain = 0
KPG1 211037Z 26001KT 04/M03 A3005 RMK A01 T00381028  RH  062%=      5-min Rain = 0
KPG1 211038Z 27001KT 04/M03 A3005 RMK A01 T00381028  RH  062%=      5-min Rain = 0
KPG1 211039Z 27000KT 04/M03 A3005 RMK A01 T00381028  RH  062%=      5-min Rain = 0
KPG1 211040Z 00000KT 04/M03 A3005 RMK A01 T00391028  RH  062%=      5-min Rain = 0
KPG1 211041Z 00000KT 04/M03 A3005 RMK A01 T00391028  RH  062%=      5-min Rain = 0
KPG1 211042Z 00000KT 04/M03 A3004 RMK A01 T00391028  RH  062%=      5-min Rain = 0
KPG1 211043Z 00000KT 04/M03 A3004 RMK A01 T00391028  RH  062%=      5-min Rain = 0
KPG1 211044Z 00000KT 04/M03 A3004 RMK A01 T00381028  RH  062%=      5-min Rain = 0
KPG1 211045Z 00000KT 04/M03 A3004 RMK A01 T00381028  RH  062%=      5-min Rain = 0
KPG1 211046Z 00000KT 04/M03 A3004 RMK A01 T00391027  RH  062%=      5-min Rain = 0
KPG1 211047Z 00000KT 04/M03 A3005 RMK A01 T00381027  RH  062%=      5-min Rain = 0
KPG1 211048Z 00000KT 04/M03 A3005 RMK A01 T00381028  RH  062%=      5-min Rain = 0
KPG1 211049Z 00000KT 04/M03 A3005 RMK A01 T00381028  RH  062%=      5-min Rain = 0
KPG1 211050Z 00000KT 04/M03 A3004 RMK A01 T00381028  RH  062%=      5-min Rain = 0
KPG1 211051Z 00000KT 04/M03 A3004 RMK A01 T00381028  RH  062%=      5-min Rain = 0
KPG1 211052Z 17001KT 04/M03 A3004 RMK A01 T00391028  RH  062%=      5-min Rain = 0
KPG1 211053Z 17002KT 04/M03 A3004 RMK A01 T00411028  RH  061%=      5-min Rain = 0
KPG1 211054Z 18002KT 04/M03 A3004 RMK A01 T00421028  RH  061%=      5-min Rain = 0
KPG1 211055Z 19003KT 04/M03 A3004 RMK A01 T00431027  RH  060%=      5-min Rain = 0
KPG1 211056Z 17004KT 04/M03 A3004 RMK A01 T00421027  RH  061%=      5-min Rain = 0
KPG1 211057Z 18003KT 04/M03 A3004 RMK A01 T00401027  RH  061%=      5-min Rain = 0
KPG1 211058Z 19003KT 04/M03 A3004 RMK A01 T00391027  RH  062%=      5-min Rain = 0
KPG1 211059Z 18004KT 04/M03 A3005 RMK A01 T00371027  RH  063%=      5-min Rain = 0
KPG1 211100Z 18004KT 04/M03 A3005 RMK A01 T00351027  RH  064%=      5-min Rain = 0
KPG1 211101Z 19003KT 03/M03 A3005 RMK A01 T00331027  RH  065%=      5-min Rain = 0
KPG1 211102Z 18003KT 03/M03 A3005 RMK A01 T00311027  RH  065%=      5-min Rain = 0
KPG1 211103Z 20002KT 03/M03 A3005 RMK A01 T00301027  RH  066%=      5-min Rain = 0
KPG1 211104Z 22002KT 03/M03 A3005 RMK A01 T00301027  RH  066%=      5-min Rain = 0
KPG1 211105Z 21002KT 03/M03 A3005 RMK A01 T00301027  RH  066%=      5-min Rain = 0
KPG1 211106Z 21002KT 03/M03 A3005 RMK A01 T00311027  RH  066%=      5-min Rain = 0
KPG1 211107Z 22002KT 03/M03 A3005 RMK A01 T00321027  RH  066%=      5-min Rain = 0
KPG1 211108Z 19002KT 03/M03 A3005 RMK A01 T00321027  RH  065%=      5-min Rain = 0
KPG1 211109Z 19001KT 03/M03 A3004 RMK A01 T00331027  RH  065%=      5-min Rain = 0
KPG1 211110Z 21001KT 03/M03 A3004 RMK A01 T00331027  RH  064%=      5-min Rain = 0
KPG1 211111Z 21002KT 03/M03 A3004 RMK A01 T00341027  RH  064%=      5-min Rain = 0
KPG1 211112Z 24001KT 03/M03 A3004 RMK A01 T00341027  RH  064%=      5-min Rain = 0
KPG1 211113Z 26001KT 03/M03 A3004 RMK A01 T00341027  RH  065%=      5-min Rain = 0
KPG1 211114Z 27001KT 03/M03 A3004 RMK A01 T00331026  RH  065%=      5-min Rain = 0
KPG1 211115Z 25001KT 03/M03 A3004 RMK A01 T00321026  RH  066%=      5-min Rain = 0
KPG1 211116Z 25001KT 03/M03 A3004 RMK A01 T00311026  RH  066%=      5-min Rain = 0
KPG1 211117Z 24002KT 03/M03 A3004 RMK A01 T00311026  RH  066%=      5-min Rain = 0
KPG1 211118Z 24002KT 03/M03 A3004 RMK A01 T00301026  RH  067%=      5-min Rain = 0
KPG1 211119Z 23002KT 03/M03 A3004 RMK A01 T00291026  RH  067%=      5-min Rain = 0
KPG1 211120Z 25001KT 03/M03 A3004 RMK A01 T00271026  RH  068%=      5-min Rain = 0
KPG1 211121Z 26000KT 03/M03 A3004 RMK A01 T00251026  RH  069%=      5-min Rain = 0
KPG1 211122Z 26000KT 02/M03 A3004 RMK A01 T00221027  RH  070%=      5-min Rain = 0
KPG1 211123Z 26002KT 02/M03 A3004 RMK A01 T00201026  RH  071%=      5-min Rain = 0
KPG1 211124Z 27002KT 02/M03 A3004 RMK A01 T00191026  RH  072%=      5-min Rain = 0
KPG1 211125Z 27003KT 02/M03 A3004 RMK A01 T00181026  RH  073%=      5-min Rain = 0
KPG1 211126Z 26002KT 02/M03 A3004 RMK A01 T00151026  RH  074%=      5-min Rain = 0
KPG1 211127Z 23002KT 01/M03 A3004 RMK A01 T00141026  RH  075%=      5-min Rain = 0
KPG1 211128Z 20001KT 01/M03 A3004 RMK A01 T00131026  RH  076%=      5-min Rain = 0
KPG1 211129Z 17001KT 01/M03 A3004 RMK A01 T00121025  RH  076%=      5-min Rain = 0
KPG1 211130Z 00000KT 01/M03 A3004 RMK A01 T00091026  RH  077%=      5-min Rain = 0
KPG1 211131Z 31001KT 01/M03 A3004 RMK A01 T00081026  RH  078%=      5-min Rain = 0
KPG1 211132Z 34001KT 01/M03 A3004 RMK A01 T00071026  RH  079%=      5-min Rain = 0
KPG1 211133Z 02001KT 01/M03 A3004 RMK A01 T00071025  RH  079%=      5-min Rain = 0
KPG1 211134Z 03001KT 01/M03 A3004 RMK A01 T00071025  RH  079%=      5-min Rain = 0
KPG1 211135Z 05001KT 01/M02 A3004 RMK A01 T00081024  RH  079%=      5-min Rain = 0
KPG1 211136Z 05001KT 01/M02 A3004 RMK A01 T00091023  RH  079%=      5-min Rain = 0
KPG1 211137Z 02001KT 01/M02 A3004 RMK A01 T00111023  RH  078%=      5-min Rain = 0
KPG1 211138Z 00001KT 01/M02 A3004 RMK A01 T00131023  RH  077%=      5-min Rain = 0
KPG1 211139Z 33000KT 02/M02 A3004 RMK A01 T00161022  RH  076%=      5-min Rain = 0
KPG1 211140Z 30001KT 02/M02 A3004 RMK A01 T00191022  RH  074%=      5-min Rain = 0
KPG1 211141Z 30000KT 02/M02 A3004 RMK A01 T00231022  RH  072%=      5-min Rain = 0
KPG1 211142Z 28000KT 03/M02 A3004 RMK A01 T00271022  RH  070%=      5-min Rain = 0
KPG1 211143Z 27000KT 03/M02 A3004 RMK A01 T00301023  RH  068%=      5-min Rain = 0
KPG1 211144Z 25001KT 03/M02 A3004 RMK A01 T00301024  RH  067%=      5-min Rain = 0
KPG1 211145Z 25002KT 03/M03 A3004 RMK A01 T00311025  RH  067%=      5-min Rain = 0
KPG1 211146Z 26002KT 03/M03 A3004 RMK A01 T00321025  RH  066%=      5-min Rain = 0
KPG1 211147Z 26002KT 03/M03 A3004 RMK A01 T00321025  RH  066%=      5-min Rain = 0
KPG1 211148Z 26002KT 03/M03 A3004 RMK A01 T00321025  RH  067%=      5-min Rain = 0
KPG1 211149Z 26001KT 03/M03 A3004 RMK A01 T00281026  RH  068%=      5-min Rain = 0
KPG1 211150Z 26001KT 02/M03 A3004 RMK A01 T00221027  RH  070%=      5-min Rain = 0
KPG1 211151Z 26001KT 02/M03 A3004 RMK A01 T00191027  RH  072%=      5-min Rain = 0
KPG1 211152Z 25001KT 02/M03 A3004 RMK A01 T00171026  RH  073%=      5-min Rain = 0
KPG1 211153Z 25000KT 02/M03 A3004 RMK A01 T00161025  RH  074%=      5-min Rain = 0
KPG1 211154Z 25000KT 02/M03 A3004 RMK A01 T00161025  RH  074%=      5-min Rain = 0
KPG1 211155Z 25000KT 02/M02 A3004 RMK A01 T00171024  RH  074%=      5-min Rain = 0
KPG1 211156Z 26001KT 02/M02 A3004 RMK A01 T00191024  RH  073%=      5-min Rain = 0
KPG1 211157Z 27002KT 02/M02 A3004 RMK A01 T00201024  RH  073%=      5-min Rain = 0
KPG1 211158Z 27002KT 02/M02 A3004 RMK A01 T00211024  RH  072%=      5-min Rain = 0
KPG1 211159Z 26002KT 02/M02 A3004 RMK A01 T00231024  RH  071%=      5-min Rain = 0
KPG1 211200Z 25002KT 02/M02 A3004 RMK A01 T00241024  RH  070%=      5-min Rain = 0
KPG1 211201Z 25002KT 03/M03 A3004 RMK A01 T00251025  RH  069%=      5-min Rain = 0
KPG1 211202Z 24003KT 03/M03 A3004 RMK A01 T00261025  RH  069%=      5-min Rain = 0
KPG1 211203Z 24003KT 03/M03 A3004 RMK A01 T00281025  RH  068%=      5-min Rain = 0
KPG1 211204Z 25002KT 03/M03 A3004 RMK A01 T00281025  RH  068%=      5-min Rain = 0
KPG1 211205Z 26003KT 03/M03 A3004 RMK A01 T00271025  RH  068%=      5-min Rain = 0
KPG1 211206Z 26002KT 03/M03 A3004 RMK A01 T00271025  RH  069%=      5-min Rain = 0
KPG1 211207Z 25002KT 02/M03 A3004 RMK A01 T00231026  RH  070%=      5-min Rain = 0
KPG1 211208Z 24002KT 02/M03 A3004 RMK A01 T00201026  RH  072%=      5-min Rain = 0
KPG1 211209Z 24003KT 02/M03 A3004 RMK A01 T00191026  RH  072%=      5-min Rain = 0
KPG1 211210Z 24003KT 02/M03 A3004 RMK A01 T00181025  RH  073%=      5-min Rain = 0
KPG1 211211Z 24003KT 02/M03 A3004 RMK A01 T00151026  RH  074%=      5-min Rain = 0
KPG1 211212Z 24002KT 01/M03 A3004 RMK A01 T00141026  RH  075%=      5-min Rain = 0
KPG1 211213Z 24002KT 01/M03 A3004 RMK A01 T00131025  RH  076%=      5-min Rain = 0
KPG1 211214Z 24002KT 01/M03 A3004 RMK A01 T00141025  RH  076%=      5-min Rain = 0
KPG1 211215Z 25002KT 01/M02 A3004 RMK A01 T00141024  RH  076%=      5-min Rain = 0
KPG1 211216Z 25002KT 02/M02 A3004 RMK A01 T00151024  RH  075%=      5-min Rain = 0
KPG1 211217Z 25001KT 02/M02 A3004 RMK A01 T00151024  RH  075%=      5-min Rain = 0
KPG1 211218Z 25001KT 02/M02 A3004 RMK A01 T00151024  RH  075%=      5-min Rain = 0
KPG1 211219Z 25001KT 02/M02 A3004 RMK A01 T00151024  RH  075%=      5-min Rain = 0
KPG1 211220Z 24001KT 02/M02 A3004 RMK A01 T00151024  RH  075%=      5-min Rain = 0
KPG1 211221Z 24001KT 02/M02 A3004 RMK A01 T00151024  RH  075%=      5-min Rain = 0
KPG1 211222Z 23001KT 02/M02 A3004 RMK A01 T00151024  RH  075%=      5-min Rain = 0
KPG1 211223Z 23001KT 02/M02 A3004 RMK A01 T00151024  RH  075%=      5-min Rain = 0
KPG1 211224Z 25002KT 02/M02 A3004 RMK A01 T00151024  RH  075%=      5-min Rain = 0
KPG1 211225Z 27002KT 02/M02 A3004 RMK A01 T00151024  RH  075%=      5-min Rain = 0
KPG1 211226Z 27003KT 02/M02 A3004 RMK A01 T00171024  RH  074%=      5-min Rain = 0
KPG1 211227Z 26002KT 02/M02 A3004 RMK A01 T00211024  RH  072%=      5-min Rain = 0
KPG1 211228Z 25002KT 02/M03 A3004 RMK A01 T00231025  RH  071%=      5-min Rain = 0
KPG1 211229Z 24002KT 03/M02 A3004 RMK A01 T00251024  RH  070%=      5-min Rain = 0
KPG1 211230Z 24002KT 03/M02 A3004 RMK A01 T00251024  RH  070%=      5-min Rain = 0
KPG1 211231Z 24002KT 02/M03 A3004 RMK A01 T00221026  RH  070%=      5-min Rain = 0
KPG1 211232Z 25002KT 02/M03 A3004 RMK A01 T00201026  RH  071%=      5-min Rain = 0
KPG1 211233Z 24002KT 02/M03 A3004 RMK A01 T00191026  RH  072%=      5-min Rain = 0
KPG1 211234Z 25002KT 02/M03 A3004 RMK A01 T00191026  RH  072%=      5-min Rain = 0
KPG1 211235Z 24002KT 02/M03 A3004 RMK A01 T00191026  RH  072%=      5-min Rain = 0
KPG1 211236Z 22002KT 02/M03 A3004 RMK A01 T00191025  RH  072%=      5-min Rain = 0
KPG1 211237Z 22003KT 02/M03 A3004 RMK A01 T00181026  RH  073%=      5-min Rain = 0
KPG1 211238Z 22003KT 02/M03 A3004 RMK A01 T00171026  RH  073%=      5-min Rain = 0
KPG1 211239Z 22003KT 02/M03 A3004 RMK A01 T00171026  RH  073%=      5-min Rain = 0
KPG1 211240Z 23003KT 02/M03 A3004 RMK A01 T00171026  RH  073%=      5-min Rain = 0
KPG1 211241Z 23003KT 02/M03 A3004 RMK A01 T00161026  RH  074%=      5-min Rain = 0
KPG1 211242Z 24003KT 02/M03 A3004 RMK A01 T00151026  RH  074%=      5-min Rain = 0
KPG1 211243Z 24003KT 02/M03 A3004 RMK A01 T00151026  RH  074%=      5-min Rain = 0
KPG1 211244Z 23003KT 02/M03 A3004 RMK A01 T00161025  RH  074%=      5-min Rain = 0
KPG1 211245Z 23002KT 02/M03 A3004 RMK A01 T00181025  RH  073%=      5-min Rain = 0
KPG1 211246Z 23002KT 02/M03 A3004 RMK A01 T00181025  RH  073%=      5-min Rain = 0
KPG1 211247Z 25002KT 02/M03 A3004 RMK A01 T00191025  RH  073%=      5-min Rain = 0
KPG1 211248Z 26002KT 02/M03 A3004 RMK A01 T00201025  RH  072%=      5-min Rain = 0
KPG1 211249Z 25001KT 02/M03 A3004 RMK A01 T00221025  RH  071%=      5-min Rain = 0
KPG1 211250Z 23001KT 03/M03 A3004 RMK A01 T00251025  RH  070%=      5-min Rain = 0
KPG1 211251Z 22001KT 02/M03 A3004 RMK A01 T00241025  RH  070%=      5-min Rain = 0
KPG1 211252Z 23001KT 02/M03 A3004 RMK A01 T00191028  RH  071%=      5-min Rain = 0
KPG1 211253Z 26001KT 02/M03 A3004 RMK A01 T00171028  RH  072%=      5-min Rain = 0
KPG1 211254Z 27001KT 01/M03 A3004 RMK A01 T00141028  RH  074%=      5-min Rain = 0
KPG1 211255Z 18000KT 01/M03 A3004 RMK A01 T00121028  RH  075%=      5-min Rain = 0
KPG1 211256Z 21000KT 01/M03 A3004 RMK A01 T00121027  RH  076%=      5-min Rain = 0
KPG1 211257Z 19001KT 01/M03 A3004 RMK A01 T00121026  RH  076%=      5-min Rain = 0
KPG1 211258Z 20001KT 01/M03 A3004 RMK A01 T00131026  RH  075%=      5-min Rain = 0
KPG1 211259Z 23001KT 01/M03 A3004 RMK A01 T00131026  RH  075%=      5-min Rain = 0
KPG1 211300Z 22002KT 01/M03 A3004 RMK A01 T00141025  RH  075%=      5-min Rain = 0
KPG1 211301Z 21002KT 01/M03 A3004 RMK A01 T00141025  RH  075%=      5-min Rain = 0
KPG1 211302Z 20002KT 01/M03 A3004 RMK A01 T00141026  RH  075%=      5-min Rain = 0
KPG1 211303Z 20002KT 02/M03 A3004 RMK A01 T00161025  RH  074%=      5-min Rain = 0
KPG1 211304Z 21002KT 02/M03 A3004 RMK A01 T00181025  RH  073%=      5-min Rain = 0
KPG1 211305Z 24002KT 02/M03 A3004 RMK A01 T00201025  RH  072%=      5-min Rain = 0
KPG1 211306Z 25003KT 02/M03 A3004 RMK A01 T00201026  RH  072%=      5-min Rain = 0
KPG1 211307Z 25003KT 02/M03 A3004 RMK A01 T00211025  RH  071%=      5-min Rain = 0
KPG1 211308Z 25002KT 02/M03 A3004 RMK A01 T00211026  RH  071%=      5-min Rain = 0
KPG1 211309Z 23002KT 02/M03 A3004 RMK A01 T00211026  RH  071%=      5-min Rain = 0
KPG1 211310Z 23002KT 02/M03 A3004 RMK A01 T00221026  RH  071%=      5-min Rain = 0
KPG1 211311Z 23002KT 02/M03 A3004 RMK A01 T00221026  RH  071%=      5-min Rain = 0
KPG1 211312Z 24003KT 02/M03 A3004 RMK A01 T00221025  RH  071%=      5-min Rain = 0
KPG1 211313Z 24002KT 02/M03 A3004 RMK A01 T00211025  RH  071%=      5-min Rain = 0
KPG1 211314Z 23002KT 02/M03 A3004 RMK A01 T00201026  RH  072%=      5-min Rain = 0
KPG1 211315Z 24002KT 02/M03 A3004 RMK A01 T00201026  RH  072%=      5-min Rain = 0
KPG1 211316Z 24002KT 02/M03 A3004 RMK A01 T00201025  RH  072%=      5-min Rain = 0
KPG1 211317Z 24002KT 02/M03 A3004 RMK A01 T00191025  RH  072%=      5-min Rain = 0
KPG1 211318Z 24002KT 02/M03 A3004 RMK A01 T00191026  RH  072%=      5-min Rain = 0
KPG1 211319Z 23002KT 02/M03 A3004 RMK A01 T00181025  RH  073%=      5-min Rain = 0
KPG1 211320Z 24002KT 02/M03 A3004 RMK A01 T00171025  RH  073%=      5-min Rain = 0
KPG1 211321Z 23002KT 02/M03 A3004 RMK A01 T00161026  RH  074%=      5-min Rain = 0
KPG1 211322Z 23001KT 02/M03 A3004 RMK A01 T00151027  RH  074%=      5-min Rain = 0
KPG1 211323Z 25002KT 02/M03 A3004 RMK A01 T00151026  RH  074%=      5-min Rain = 0
KPG1 211324Z 25002KT 01/M03 A3004 RMK A01 T00141026  RH  075%=      5-min Rain = 0
KPG1 211325Z 25003KT 01/M03 A3004 RMK A01 T00131026  RH  075%=      5-min Rain = 0
KPG1 211326Z 25002KT 01/M03 A3004 RMK A01 T00131026  RH  075%=      5-min Rain = 0
KPG1 211327Z 23002KT 01/M03 A3004 RMK A01 T00131026  RH  076%=      5-min Rain = 0
KPG1 211328Z 23002KT 01/M03 A3004 RMK A01 T00121025  RH  076%=      5-min Rain = 0
KPG1 211329Z 25003KT 01/M03 A3004 RMK A01 T00121026  RH  076%=      5-min Rain = 0
KPG1 211330Z 24002KT 01/M03 A3004 RMK A01 T00121026  RH  076%=      5-min Rain = 0
KPG1 211331Z 24001KT 01/M03 A3004 RMK A01 T00121026  RH  076%=      5-min Rain = 0
KPG1 211332Z 27001KT 01/M03 A3004 RMK A01 T00121025  RH  076%=      5-min Rain = 0
KPG1 211333Z 29001KT 01/M03 A3004 RMK A01 T00101026  RH  077%=      5-min Rain = 0
KPG1 211334Z 28001KT 01/M03 A3004 RMK A01 T00081026  RH  078%=      5-min Rain = 0
KPG1 211335Z 31001KT 01/M03 A3004 RMK A01 T00081026  RH  078%=      5-min Rain = 0
KPG1 211336Z 35001KT 01/M03 A3004 RMK A01 T00081026  RH  078%=      5-min Rain = 0
KPG1 211337Z 01001KT 01/M03 A3004 RMK A01 T00081025  RH  079%=      5-min Rain = 0
KPG1 211338Z 00000KT 01/M03 A3004 RMK A01 T00071025  RH  079%=      5-min Rain = 0
KPG1 211339Z 04001KT 01/M03 A3004 RMK A01 T00081025  RH  079%=      5-min Rain = 0
KPG1 211340Z 06002KT 01/M02 A3005 RMK A01 T00081024  RH  079%=      5-min Rain = 0
KPG1 211341Z 08002KT 01/M02 A3005 RMK A01 T00091024  RH  079%=      5-min Rain = 0
KPG1 211342Z 06002KT 01/M02 A3005 RMK A01 T00091024  RH  078%=      5-min Rain = 0
KPG1 211343Z 05001KT 01/M02 A3005 RMK A01 T00111024  RH  078%=      5-min Rain = 0
KPG1 211344Z 23000KT 01/M02 A3005 RMK A01 T00121024  RH  077%=      5-min Rain = 0
KPG1 211345Z 23001KT 01/M02 A3005 RMK A01 T00131024  RH  076%=      5-min Rain = 0
KPG1 211346Z 26002KT 02/M03 A3005 RMK A01 T00151025  RH  075%=      5-min Rain = 0
KPG1 211347Z 28002KT 02/M02 A3005 RMK A01 T00171024  RH  074%=      5-min Rain = 0
KPG1 211348Z 28002KT 02/M02 A3004 RMK A01 T00191024  RH  073%=      5-min Rain = 0
KPG1 211349Z 25003KT 02/M02 A3004 RMK A01 T00221024  RH  072%=      5-min Rain = 0
KPG1 211350Z 25002KT 02/M03 A3004 RMK A01 T00231025  RH  071%=      5-min Rain = 0
KPG1 211351Z 23002KT 03/M03 A3004 RMK A01 T00251025  RH  070%=      5-min Rain = 0
KPG1 211352Z 21002KT 03/M02 A3004 RMK A01 T00271024  RH  069%=      5-min Rain = 0
KPG1 211353Z 25002KT 02/M03 A3004 RMK A01 T00231026  RH  070%=      5-min Rain = 0
KPG1 211354Z 24002KT 02/M03 A3004 RMK A01 T00191027  RH  071%=      5-min Rain = 0
KPG1 211355Z 23002KT 02/M03 A3004 RMK A01 T00181027  RH  072%=      5-min Rain = 0
KPG1 211356Z 23001KT 02/M03 A3004 RMK A01 T00191027  RH  072%=      5-min Rain = 0
KPG1 211357Z 28002KT 02/M03 A3004 RMK A01 T00201026  RH  071%=      5-min Rain = 0
KPG1 211358Z 27002KT 02/M03 A3004 RMK A01 T00211026  RH  071%=      5-min Rain = 0
KPG1 211359Z 27002KT 02/M03 A3004 RMK A01 T00231026  RH  070%=      5-min Rain = 0
KPG1 211400Z 27001KT 03/M03 A3004 RMK A01 T00251027  RH  069%=      5-min Rain = 0
KPG1 211401Z 25000KT 03/M03 A3004 RMK A01 T00251026  RH  069%=      5-min Rain = 0
KPG1 211402Z 24001KT 02/M03 A3004 RMK A01 T00191027  RH  072%=      5-min Rain = 0
KPG1 211403Z 25002KT 02/M03 A3004 RMK A01 T00171027  RH  073%=      5-min Rain = 0
KPG1 211404Z 24002KT 02/M03 A3004 RMK A01 T00171026  RH  073%=      5-min Rain = 0
KPG1 211405Z 24001KT 02/M03 A3004 RMK A01 T00171026  RH  073%=      5-min Rain = 0
KPG1 211406Z 24001KT 02/M02 A3004 RMK A01 T00171024  RH  074%=      5-min Rain = 0
KPG1 211407Z 23002KT 02/M03 A3004 RMK A01 T00161025  RH  074%=      5-min Rain = 0
KPG1 211408Z 22002KT 02/M03 A3005 RMK A01 T00151026  RH  074%=      5-min Rain = 0
KPG1 211409Z 24001KT 02/M03 A3005 RMK A01 T00151025  RH  074%=      5-min Rain = 0
KPG1 211410Z 24001KT 02/M03 A3005 RMK A01 T00151025  RH  075%=      5-min Rain = 0
KPG1 211411Z 26002KT 02/M02 A3005 RMK A01 T00161024  RH  075%=      5-min Rain = 0
KPG1 211412Z 26001KT 02/M02 A3005 RMK A01 T00151023  RH  076%=      5-min Rain = 0
KPG1 211413Z 26000KT 01/M02 A3005 RMK A01 T00141023  RH  076%=      5-min Rain = 0
KPG1 211414Z 26002KT 01/M02 A3005 RMK A01 T00131023  RH  077%=      5-min Rain = 0
KPG1 211415Z 25002KT 01/M02 A3005 RMK A01 T00131023  RH  076%=      5-min Rain = 0
KPG1 211416Z 24001KT 01/M02 A3005 RMK A01 T00141023  RH  077%=      5-min Rain = 0
KPG1 211417Z 28001KT 02/M02 A3005 RMK A01 T00151023  RH  076%=      5-min Rain = 0
KPG1 211418Z 27001KT 02/M02 A3005 RMK A01 T00151022  RH  076%=      5-min Rain = 0
KPG1 211419Z 26002KT 02/M02 A3005 RMK A01 T00151022  RH  077%=      5-min Rain = 0
KPG1 211420Z 25002KT 02/M02 A3005 RMK A01 T00151022  RH  076%=      5-min Rain = 0
KPG1 211421Z 26003KT 02/M02 A3005 RMK A01 T00151023  RH  076%=      5-min Rain = 0
KPG1 211422Z 27002KT 02/M02 A3005 RMK A01 T00181022  RH  075%=      5-min Rain = 0
KPG1 211423Z 25002KT 02/M02 A3005 RMK A01 T00221021  RH  073%=      5-min Rain = 0
KPG1 211424Z 25002KT 03/M02 A3005 RMK A01 T00271022  RH  070%=      5-min Rain = 0
KPG1 211425Z 24002KT 03/M02 A3005 RMK A01 T00321018  RH  070%=      5-min Rain = 0
KPG1 211426Z 24002KT 03/M02 A3005 RMK A01 T00331017  RH  070%=      5-min Rain = 0
KPG1 211427Z 22002KT 03/M02 A3005 RMK A01 T00341018  RH  069%=      5-min Rain = 0
KPG1 211428Z 20002KT 04/M02 A3005 RMK A01 T00371016  RH  069%=      5-min Rain = 0
KPG1 211429Z 20002KT 04/M02 A3005 RMK A01 T00381015  RH  068%=      5-min Rain = 0
KPG1 211430Z 21001KT 04/M01 A3005 RMK A01 T00381014  RH  069%=      5-min Rain = 0
KPG1 211431Z 21001KT 04/M01 A3005 RMK A01 T00371014  RH  069%=      5-min Rain = 0
KPG1 211432Z 21001KT 04/M02 A3005 RMK A01 T00361016  RH  069%=      5-min Rain = 0
KPG1 211433Z 22000KT 04/M02 A3005 RMK A01 T00361016  RH  069%=      5-min Rain = 0
KPG1 211434Z 23001KT 04/M01 A3005 RMK A01 T00371012  RH  070%=      5-min Rain = 0
KPG1 211435Z 23001KT 04/M01 A3005 RMK A01 T00371014  RH  069%=      5-min Rain = 0
KPG1 211436Z 22000KT 04/M01 A3005 RMK A01 T00391014  RH  068%=      5-min Rain = 0
KPG1 211437Z 16000KT 04/M01 A3005 RMK A01 T00421013  RH  068%=      5-min Rain = 0
KPG1 211438Z 00000KT 04/M01 A3005 RMK A01 T00431009  RH  069%=      5-min Rain = 0
KPG1 211439Z 21000KT 05/M01 A3005 RMK A01 T00451010  RH  067%=      5-min Rain = 0
KPG1 211440Z 19001KT 05/M01 A3005 RMK A01 T00471008  RH  067%=      5-min Rain = 0
KPG1 211441Z 22000KT 05/M01 A3005 RMK A01 T00491009  RH  066%=      5-min Rain = 0
KPG1 211442Z 17000KT 05/M01 A3005 RMK A01 T00501009  RH  066%=      5-min Rain = 0
KPG1 211443Z 16001KT 05/M01 A3005 RMK A01 T00511011  RH  064%=      5-min Rain = 0
KPG1 211444Z 19002KT 05/M01 A3005 RMK A01 T00521011  RH  064%=      5-min Rain = 0
KPG1 211445Z 19002KT 05/M01 A3005 RMK A01 T00531013  RH  063%=      5-min Rain = 0
KPG1 211446Z 19001KT 05/M01 A3005 RMK A01 T00531013  RH  062%=      5-min Rain = 0
KPG1 211447Z 19002KT 05/M01 A3005 RMK A01 T00531014  RH  062%=      5-min Rain = 0
KPG1 211448Z 17002KT 05/M02 A3005 RMK A01 T00531015  RH  062%=      5-min Rain = 0
KPG1 211449Z 18001KT 05/M02 A3005 RMK A01 T00541015  RH  061%=      5-min Rain = 0
KPG1 211450Z 20001KT 06/M02 A3005 RMK A01 T00551017  RH  060%=      5-min Rain = 0
KPG1 211451Z 22001KT 06/M02 A3005 RMK A01 T00551016  RH  060%=      5-min Rain = 0
KPG1 211452Z 20001KT 06/M02 A3005 RMK A01 T00551017  RH  060%=      5-min Rain = 0
KPG1 211453Z 19002KT 05/M02 A3005 RMK A01 T00541017  RH  060%=      5-min Rain = 0
KPG1 211454Z 17002KT 05/M02 A3006 RMK A01 T00541018  RH  060%=      5-min Rain = 0
KPG1 211455Z 18002KT 06/M02 A3006 RMK A01 T00551017  RH  060%=      5-min Rain = 0
KPG1 211456Z 20002KT 06/M02 A3006 RMK A01 T00551018  RH  059%=      5-min Rain = 0
KPG1 211457Z 19002KT 06/M02 A3006 RMK A01 T00551017  RH  060%=      5-min Rain = 0
KPG1 211458Z 17002KT 06/M02 A3006 RMK A01 T00551016  RH  060%=      5-min Rain = 0
KPG1 211459Z 19001KT 06/M02 A3006 RMK A01 T00561015  RH  060%=      5-min Rain = 0
KPG1 211500Z 19002KT 06/M02 A3006 RMK A01 T00561017  RH  059%=      5-min Rain = 0
KPG1 211501Z 18003KT 06/M02 A3006 RMK A01 T00561016  RH  060%=      5-min Rain = 0
KPG1 211502Z 19002KT 06/M02 A3005 RMK A01 T00561015  RH  060%=      5-min Rain = 0
KPG1 211503Z 18002KT 06/M02 A3005 RMK A01 T00561016  RH  060%=      5-min Rain = 0
KPG1 211504Z 19002KT 06/M01 A3005 RMK A01 T00551014  RH  061%=      5-min Rain = 0
KPG1 211505Z 19003KT 06/M01 A3005 RMK A01 T00551014  RH  061%=      5-min Rain = 0
KPG1 211506Z 18003KT 05/M01 A3006 RMK A01 T00541012  RH  062%=      5-min Rain = 0
KPG1 211507Z 19003KT 05/M01 A3006 RMK A01 T00531010  RH  064%=      5-min Rain = 0
KPG1 211508Z 20002KT 05/M01 A3005 RMK A01 T00531010  RH  064%=      5-min Rain = 0
KPG1 211509Z 20002KT 05/M01 A3005 RMK A01 T00531010  RH  064%=      5-min Rain = 0
KPG1 211510Z 20002KT 05/M01 A3005 RMK A01 T00531010  RH  064%=      5-min Rain = 0
KPG1 211511Z 21002KT 05/M01 A3005 RMK A01 T00521011  RH  064%=      5-min Rain = 0
KPG1 211512Z 19001KT 05/M01 A3005 RMK A01 T00511013  RH  064%=      5-min Rain = 0
KPG1 211513Z 19001KT 05/M02 A3005 RMK A01 T00501015  RH  063%=      5-min Rain = 0
KPG1 211514Z 20001KT 05/M02 A3005 RMK A01 T00491016  RH  063%=      5-min Rain = 0
KPG1 211515Z 18002KT 05/M02 A3005 RMK A01 T00491016  RH  063%=      5-min Rain = 0
KPG1 211516Z 15001KT 05/M02 A3005 RMK A01 T00501015  RH  063%=      5-min Rain = 0
KPG1 211517Z 19000KT 05/M01 A3005 RMK A01 T00531014  RH  062%=      5-min Rain = 0
KPG1 211518Z 00000KT 06/M02 A3005 RMK A01 T00551016  RH  061%=      5-min Rain = 0
KPG1 211519Z 00000KT 06/M02 A3005 RMK A01 T00561017  RH  060%=      5-min Rain = 0
KPG1 211520Z 19000KT 06/M02 A3005 RMK A01 T00561016  RH  060%=      5-min Rain = 0
KPG1 211521Z 24000KT 06/M02 A3005 RMK A01 T00561016  RH  059%=      5-min Rain = 0
KPG1 211522Z 20001KT 06/M02 A3005 RMK A01 T00561017  RH  059%=      5-min Rain = 0
KPG1 211523Z 17001KT 06/M02 A3005 RMK A01 T00571015  RH  060%=      5-min Rain = 0
KPG1 211524Z 20002KT 06/M01 A3005 RMK A01 T00591013  RH  060%=      5-min Rain = 0
KPG1 211525Z 21002KT 06/M01 A3005 RMK A01 T00611012  RH  059%=      5-min Rain = 0
KPG1 211526Z 19002KT 06/M01 A3005 RMK A01 T00621012  RH  059%=      5-min Rain = 0
KPG1 211527Z 20001KT 06/M01 A3005 RMK A01 T00631012  RH  058%=      5-min Rain = 0
KPG1 211528Z 22002KT 06/M01 A3005 RMK A01 T00641013  RH  058%=      5-min Rain = 0
KPG1 211529Z 20002KT 06/M01 A3005 RMK A01 T00631014  RH  058%=      5-min Rain = 0
KPG1 211530Z 21002KT 06/M01 A3005 RMK A01 T00631013  RH  058%=      5-min Rain = 0
KPG1 211531Z 22002KT 06/M01 A3005 RMK A01 T00621014  RH  058%=      5-min Rain = 0
KPG1 211532Z 22003KT 06/M01 A3005 RMK A01 T00621013  RH  059%=      5-min Rain = 0
KPG1 211533Z 21003KT 06/M01 A3005 RMK A01 T00621014  RH  058%=      5-min Rain = 0
KPG1 211534Z 20003KT 06/M01 A3005 RMK A01 T00631012  RH  059%=      5-min Rain = 0
KPG1 211535Z 21003KT 07/M01 A3005 RMK A01 T00651011  RH  059%=      5-min Rain = 0
KPG1 211536Z 22003KT 07/M01 A3005 RMK A01 T00651011  RH  058%=      5-min Rain = 0
KPG1 211537Z 22003KT 07/M01 A3005 RMK A01 T00661010  RH  058%=      5-min Rain = 0
KPG1 211538Z 22003KT 07/M01 A3005 RMK A01 T00661012  RH  058%=      5-min Rain = 0
KPG1 211539Z 21003KT 07/M01 A3005 RMK A01 T00661012  RH  058%=      5-min Rain = 0
KPG1 211540Z 22003KT 07/M01 A3005 RMK A01 T00671010  RH  058%=      5-min Rain = 0
KPG1 211541Z 22003KT 07/M01 A3005 RMK A01 T00681011  RH  057%=      5-min Rain = 0
KPG1 211542Z 22003KT 07/M01 A3005 RMK A01 T00681012  RH  057%=      5-min Rain = 0
KPG1 211543Z 23003KT 07/M01 A3005 RMK A01 T00691012  RH  056%=      5-min Rain = 0
KPG1 211544Z 24003KT 07/M01 A3005 RMK A01 T00701013  RH  055%=      5-min Rain = 0
KPG1 211545Z 22003KT 07/M01 A3005 RMK A01 T00711014  RH  055%=      5-min Rain = 0
KPG1 211546Z 22003KT 07/M01 A3005 RMK A01 T00721014  RH  055%=      5-min Rain = 0
KPG1 211547Z 21003KT 07/M02 A3006 RMK A01 T00731015  RH  054%=      5-min Rain = 0
KPG1 211548Z 22002KT 07/M01 A3006 RMK A01 T00741014  RH  054%=      5-min Rain = 0
KPG1 211549Z 20003KT 08/M01 A3006 RMK A01 T00761014  RH  053%=      5-min Rain = 0
KPG1 211550Z 19003KT 08/M01 A3005 RMK A01 T00771014  RH  052%=      5-min Rain = 0
KPG1 211551Z 20003KT 08/M01 A3006 RMK A01 T00781014  RH  052%=      5-min Rain = 0
KPG1 211552Z 21002KT 08/M01 A3006 RMK A01 T00791014  RH  052%=      5-min Rain = 0
KPG1 211553Z 19002KT 08/M01 A3006 RMK A01 T00811012  RH  052%=      5-min Rain = 0
KPG1 211554Z 20002KT 08/M01 A3006 RMK A01 T00831010  RH  052%=      5-min Rain = 0
KPG1 211555Z 21002KT 08/M01 A3006 RMK A01 T00841011  RH  051%=      5-min Rain = 0
KPG1 211556Z 21002KT 09/M01 A3006 RMK A01 T00861012  RH  050%=      5-min Rain = 0
KPG1 211557Z 22001KT 09/M01 A3006 RMK A01 T00871012  RH  050%=      5-min Rain = 0
KPG1 211558Z 18001KT 09/M01 A3006 RMK A01 T00881012  RH  049%=      5-min Rain = 0
KPG1 211559Z 16002KT 09/M01 A3006 RMK A01 T00901011  RH  049%=      5-min Rain = 0
KPG1 211600Z 17001KT 09/M01 A3005 RMK A01 T00921011  RH  049%=      5-min Rain = 0
KPG1 211601Z 19001KT 09/M01 A3005 RMK A01 T00931009  RH  049%=      5-min Rain = 0
KPG1 211602Z 18002KT 09/M01 A3005 RMK A01 T00941007  RH  049%=      5-min Rain = 0
KPG1 211603Z 18002KT 10/M01 A3005 RMK A01 T00951009  RH  048%=      5-min Rain = 0
KPG1 211604Z 19002KT 10/M02 A3005 RMK A01 T00961015  RH  046%=      5-min Rain = 0
KPG1 211605Z 17002KT 10/M01 A3005 RMK A01 T00981014  RH  046%=      5-min Rain = 0
KPG1 211606Z 18003KT 10/M02 A3005 RMK A01 T01011016  RH  044%=      5-min Rain = 0
KPG1 211607Z 20002KT 10/M03 A3005 RMK A01 T01021026  RH  041%=      5-min Rain = 0
KPG1 211608Z 20002KT 10/M03 A3005 RMK A01 T01021027  RH  040%=      5-min Rain = 0
KPG1 211609Z 18002KT 10/M02 A3005 RMK A01 T01031023  RH  041%=      5-min Rain = 0
KPG1 211610Z 19002KT 11/M02 A3005 RMK A01 T01061018  RH  042%=      5-min Rain = 0
KPG1 211611Z 20002KT 11/M02 A3005 RMK A01 T01081018  RH  042%=      5-min Rain = 0
KPG1 211612Z 20001KT 11/M02 A3005 RMK A01 T01091022  RH  040%=      5-min Rain = 0
KPG1 211613Z 17002KT 11/M02 A3005 RMK A01 T01091023  RH  040%=      5-min Rain = 0
KPG1 211614Z 18002KT 11/M02 A3005 RMK A01 T01091022  RH  040%=      5-min Rain = 0
KPG1 211615Z 22003KT 11/M02 A3005 RMK A01 T01111022  RH  039%=      5-min Rain = 0
KPG1 211616Z 24002KT 11/M03 A3005 RMK A01 T01111027  RH  038%=      5-min Rain = 0
KPG1 211617Z 24003KT 11/M03 A3005 RMK A01 T01101029  RH  038%=      5-min Rain = 0
KPG1 211618Z 19002KT 11/M03 A3005 RMK A01 T01091032  RH  037%=      5-min Rain = 0
KPG1 211619Z 20001KT 11/M03 A3005 RMK A01 T01091028  RH  038%=      5-min Rain = 0
KPG1 211620Z 21002KT 11/M02 A3005 RMK A01 T01111024  RH  039%=      5-min Rain = 0
KPG1 211621Z 18002KT 11/M02 A3005 RMK A01 T01131021  RH  039%=      5-min Rain = 0
KPG1 211622Z 19002KT 12/M02 A3005 RMK A01 T01161023  RH  038%=      5-min Rain = 0
KPG1 211623Z 19003KT 12/M03 A3005 RMK A01 T01181026  RH  037%=      5-min Rain = 0
KPG1 211624Z 20003KT 12/M03 A3005 RMK A01 T01181027  RH  036%=      5-min Rain = 0
KPG1 211625Z 21003KT 12/M03 A3005 RMK A01 T01171030  RH  036%=      5-min Rain = 0
KPG1 211626Z 21003KT 12/M03 A3005 RMK A01 T01151027  RH  037%=      5-min Rain = 0
KPG1 211627Z 20003KT 12/M03 A3005 RMK A01 T01151025  RH  038%=      5-min Rain = 0
KPG1 211628Z 19003KT 12/M03 A3005 RMK A01 T01151027  RH  037%=      5-min Rain = 0
KPG1 211629Z 20003KT 12/M03 A3005 RMK A01 T01151030  RH  036%=      5-min Rain = 0
KPG1 211630Z 20003KT 12/M03 A3005 RMK A01 T01151031  RH  036%=      5-min Rain = 0
KPG1 211631Z 21002KT 12/M03 A3005 RMK A01 T01151029  RH  036%=      5-min Rain = 0
KPG1 211632Z 23004KT 12/M03 A3005 RMK A01 T01151030  RH  036%=      5-min Rain = 0
KPG1 211633Z 20003KT 12/M03 A3005 RMK A01 T01161030  RH  036%=      5-min Rain = 0
KPG1 211634Z 19002KT 12/M03 A3005 RMK A01 T01161028  RH  036%=      5-min Rain = 0
KPG1 211635Z 19003KT 12/M03 A3005 RMK A01 T01171027  RH  036%=      5-min Rain = 0
KPG1 211636Z 20003KT 12/M02 A3005 RMK A01 T01201022  RH  037%=      5-min Rain = 0
KPG1 211637Z 18002KT 12/M02 A3005 RMK A01 T01241019  RH  037%=      5-min Rain = 0
KPG1 211638Z 23002KT 13/M02 A3005 RMK A01 T01271021  RH  036%=      5-min Rain = 0
KPG1 211639Z 23002KT 13/M02 A3005 RMK A01 T01271024  RH  035%=      5-min Rain = 0
KPG1 211640Z 22002KT 13/M02 A3005 RMK A01 T01261024  RH  035%=      5-min Rain = 0
KPG1 211641Z 21002KT 13/M02 A3005 RMK A01 T01251024  RH  035%=      5-min Rain = 0
KPG1 211642Z 21003KT 13/M02 A3005 RMK A01 T01261022  RH  036%=      5-min Rain = 0
KPG1 211643Z 21003KT 13/M02 A3005 RMK A01 T01271024  RH  035%=      5-min Rain = 0
KPG1 211644Z 22003KT 13/M03 A3005 RMK A01 T01261027  RH  034%=      5-min Rain = 0
KPG1 211645Z 20003KT 13/M03 A3005 RMK A01 T01251027  RH  035%=      5-min Rain = 0
KPG1 211646Z 21003KT 13/M03 A3005 RMK A01 T01251027  RH  035%=      5-min Rain = 0
KPG1 211647Z 19003KT 13/M02 A3005 RMK A01 T01271022  RH  036%=      5-min Rain = 0
KPG1 211648Z 18004KT 13/M02 A3005 RMK A01 T01311021  RH  035%=      5-min Rain = 0
KPG1 211649Z 19003KT 13/M02 A3005 RMK A01 T01321024  RH  034%=      5-min Rain = 0
KPG1 211650Z 17003KT 13/M02 A3005 RMK A01 T01331023  RH  034%=      5-min Rain = 0
KPG1 211651Z 20003KT 13/M02 A3005 RMK A01 T01341022  RH  034%=      5-min Rain = 0
KPG1 211652Z 20003KT 13/M03 A3005 RMK A01 T01341025  RH  033%=      5-min Rain = 0
KPG1 211653Z 20003KT 13/M02 A3005 RMK A01 T01331024  RH  034%=      5-min Rain = 0
KPG1 211654Z 18004KT 13/M02 A3005 RMK A01 T01331018  RH  035%=      5-min Rain = 0
KPG1 211655Z 18004KT 14/M02 A3005 RMK A01 T01361018  RH  034%=      5-min Rain = 0
KPG1 211656Z 18003KT 14/M02 A3005 RMK A01 T01381017  RH  034%=      5-min Rain = 0
KPG1 211657Z 16002KT 14/M02 A3005 RMK A01 T01391017  RH  034%=      5-min Rain = 0
KPG1 211658Z 15001KT 14/M02 A3005 RMK A01 T01391019  RH  034%=      5-min Rain = 0
KPG1 211659Z 19002KT 14/M02 A3005 RMK A01 T01401019  RH  033%=      5-min Rain = 0
KPG1 211700Z 17002KT 14/M02 A3005 RMK A01 T01391020  RH  033%=      5-min Rain = 0
KPG1 211701Z 17003KT 14/M02 A3005 RMK A01 T01401016  RH  034%=      5-min Rain = 0
KPG1 211702Z 17004KT 14/M02 A3005 RMK A01 T01421016  RH  034%=      5-min Rain = 0
KPG1 211703Z 17003KT 14/M02 A3005 RMK A01 T01431018  RH  033%=      5-min Rain = 0
KPG1 211704Z 17004KT 14/M02 A3005 RMK A01 T01431016  RH  033%=      5-min Rain = 0
KPG1 211705Z 18004KT 15/M01 A3005 RMK A01 T01461013  RH  033%=      5-min Rain = 0
KPG1 211706Z 19005KT 15/M01 A3005 RMK A01 T01471014  RH  033%=      5-min Rain = 0
KPG1 211707Z 20005KT 15/M02 A3005 RMK A01 T01461018  RH  032%=      5-min Rain = 0
KPG1 211708Z 17004KT 14/M02 A3005 RMK A01 T01441016  RH  033%=      5-min Rain = 0
KPG1 211709Z 17006KT 14/M02 A3005 RMK A01 T01441017  RH  033%=      5-min Rain = 0
KPG1 211710Z 15003KT 15/M02 A3005 RMK A01 T01461016  RH  033%=      5-min Rain = 0
KPG1 211711Z 17003KT 15/M01 A3005 RMK A01 T01481013  RH  033%=      5-min Rain = 0
KPG1 211712Z 18003KT 15/M02 A3005 RMK A01 T01501015  RH  032%=      5-min Rain = 0
KPG1 211713Z 19004KT 15/M02 A3005 RMK A01 T01511016  RH  032%=      5-min Rain = 0
KPG1 211714Z 16003KT 15/M02 A3004 RMK A01 T01511015  RH  032%=      5-min Rain = 0
KPG1 211715Z 16004KT 15/M02 A3004 RMK A01 T01531015  RH  031%=      5-min Rain = 0
KPG1 211716Z 16003KT 16/M02 A3004 RMK A01 T01551015  RH  031%=      5-min Rain = 0
KPG1 211717Z 16004KT 16/M01 A3004 RMK A01 T01571014  RH  031%=      5-min Rain = 0
KPG1 211718Z 16004KT 16/M02 A3004 RMK A01 T01591015  RH  030%=      5-min Rain = 0
KPG1 211719Z 15003KT 16/M02 A3004 RMK A01 T01601017  RH  030%=      5-min Rain = 0
KPG1 211720Z 15004KT 16/M01 A3004 RMK A01 T01611012  RH  031%=      5-min Rain = 0
KPG1 211721Z 15004KT 16/M01 A3004 RMK A01 T01631013  RH  030%=      5-min Rain = 0
KPG1 211722Z 17004KT 16/M01 A3004 RMK A01 T01631013  RH  030%=      5-min Rain = 0
KPG1 211723Z 16004KT 16/M02 A3004 RMK A01 T01631015  RH  029%=      5-min Rain = 0
KPG1 211724Z 15004KT 16/M01 A3004 RMK A01 T01631013  RH  030%=      5-min Rain = 0
KPG1 211725Z 15005KT 17/M02 A3004 RMK A01 T01651015  RH  029%=      5-min Rain = 0
KPG1 211726Z 14006KT 17/M02 A3004 RMK A01 T01651016  RH  029%=      5-min Rain = 0
KPG1 211727Z 15006KT 17/M02 A3004 RMK A01 T01651015  RH  029%=      5-min Rain = 0
KPG1 211728Z 14005KT 17/M02 A3004 RMK A01 T01651017  RH  029%=      5-min Rain = 0
KPG1 211729Z 15004KT 16/M02 A3004 RMK A01 T01641019  RH  029%=      5-min Rain = 0
KPG1 211730Z 15005KT 16/M02 A3004 RMK A01 T01641016  RH  029%=      5-min Rain = 0
KPG1 211731Z 18005KT 17/M01 A3004 RMK A01 T01661014  RH  029%=      5-min Rain = 0
KPG1 211732Z 19004KT 17/M01 A3004 RMK A01 T01691014  RH  029%=      5-min Rain = 0
KPG1 211733Z 18003KT 17/M02 A3004 RMK A01 T01701019  RH  028%=      5-min Rain = 0
KPG1 211734Z 17004KT 17/M02 A3003 RMK A01 T01691019  RH  028%=      5-min Rain = 0
KPG1 211735Z 16005KT 17/M02 A3003 RMK A01 T01691017  RH  028%=      5-min Rain = 0
KPG1 211736Z 18004KT 17/M02 A3003 RMK A01 T01711015  RH  028%=      5-min Rain = 0
KPG1 211737Z 19004KT 17/M02 A3003 RMK A01 T01731016  RH  028%=      5-min Rain = 0
KPG1 211738Z 17004KT 17/M02 A3003 RMK A01 T01731017  RH  027%=      5-min Rain = 0
KPG1 211739Z 19004KT 17/M02 A3003 RMK A01 T01731019  RH  027%=      5-min Rain = 0
KPG1 211740Z 21004KT 17/M02 A3003 RMK A01 T01741023  RH  026%=      5-min Rain = 0
KPG1 211741Z 21003KT 17/M03 A3003 RMK A01 T01731028  RH  025%=      5-min Rain = 0
KPG1 211742Z 20006KT 17/M02 A3003 RMK A01 T01731023  RH  026%=      5-min Rain = 0
KPG1 211743Z 21005KT 17/M02 A3003 RMK A01 T01741021  RH  026%=      5-min Rain = 0
KPG1 211744Z 21005KT 18/M03 A3003 RMK A01 T01751026  RH  025%=      5-min Rain = 0
KPG1 211745Z 21004KT 17/M03 A3003 RMK A01 T01731026  RH  026%=      5-min Rain = 0
KPG1 211746Z 18004KT 17/M02 A3003 RMK A01 T01731024  RH  026%=      5-min Rain = 0
KPG1 211747Z 18005KT 17/M02 A3002 RMK A01 T01741017  RH  027%=      5-min Rain = 0
KPG1 211748Z 20005KT 18/M02 A3002 RMK A01 T01781017  RH  026%=      5-min Rain = 0
KPG1 211749Z 18005KT 18/M02 A3002 RMK A01 T01801016  RH  026%=      5-min Rain = 0
KPG1 211750Z 17004KT 18/M02 A3002 RMK A01 T01801020  RH  026%=      5-min Rain = 0
KPG1 211751Z 17005KT 18/M02 A3002 RMK A01 T01791019  RH  026%=      5-min Rain = 0
KPG1 211752Z 20003KT 18/M02 A3002 RMK A01 T01771022  RH  026%=      5-min Rain = 0
KPG1 211753Z 21004KT 18/M02 A3002 RMK A01 T01761019  RH  026%=      5-min Rain = 0
KPG1 211754Z 23005KT 18/M02 A3002 RMK A01 T01771023  RH  026%=      5-min Rain = 0
KPG1 211755Z 22006KT 18/M03 A3002 RMK A01 T01801026  RH  025%=      5-min Rain = 0
KPG1 211756Z 22006KT 18/M03 A3002 RMK A01 T01801028  RH  024%=      5-min Rain = 0
KPG1 211757Z 23005KT 18/M03 A3002 RMK A01 T01781026  RH  025%=      5-min Rain = 0
KPG1 211758Z 25005KT 18/M02 A3002 RMK A01 T01791023  RH  025%=      5-min Rain = 0
KPG1 211759Z 23006KT 18/M02 A3002 RMK A01 T01801024  RH  025%=      5-min Rain = 0
KPG1 211800Z 22008KT 18/M03 A3002 RMK A01 T01811029  RH  024%=      5-min Rain = 0
KPG1 211801Z 22007KT 18/M03 A3002 RMK A01 T01811028  RH  024%=      5-min Rain = 0
KPG1 211802Z 24007KT 18/M03 A3002 RMK A01 T01821027  RH  024%=      5-min Rain = 0
KPG1 211803Z 23008KT 18/M03 A3002 RMK A01 T01831027  RH  024%=      5-min Rain = 0
KPG1 211804Z 22008KT 18/M03 A3002 RMK A01 T01821028  RH  024%=      5-min Rain = 0
KPG1 211805Z 22007KT 18/M03 A3002 RMK A01 T01801026  RH  024%=      5-min Rain = 0
KPG1 211806Z 22008KT 18/M02 A3002 RMK A01 T01821024  RH  024%=      5-min Rain = 0
KPG1 211807Z 20007KT 18/M03 A3002 RMK A01 T01821030  RH  023%=      5-min Rain = 0
KPG1 211808Z 19007KT 18/M03 A3002 RMK A01 T01811029  RH  024%=      5-min Rain = 0
KPG1 211809Z 19008KT 18/M03 A3002 RMK A01 T01821025  RH  024%=      5-min Rain = 0
KPG1 211810Z 20007KT 19/M02 A3001 RMK A01 T01851024  RH  024%=      5-min Rain = 0
KPG1 211811Z 22009KT 19/M03 A3001 RMK A01 T01861026  RH  024%=      5-min Rain = 0
KPG1 211812Z 22009KT 19/M03 A3001 RMK A01 T01871027  RH  023%=      5-min Rain = 0
KPG1 211813Z 21009KT 19/M03 A3001 RMK A01 T01871027  RH  023%=      5-min Rain = 0
KPG1 211814Z 19007G12KT 19/M03 A3001 RMK A01 T01861029  RH  023%=      5-min Rain = 0
KPG1 211815Z 19007KT 19/M03 A3001 RMK A01 T01861027  RH  023%=      5-min Rain = 0
KPG1 211816Z 21007KT 19/M02 A3001 RMK A01 T01881023  RH  024%=      5-min Rain = 0
KPG1 211817Z 21006KT 19/M03 A3001 RMK A01 T01901027  RH  023%=      5-min Rain = 0
KPG1 211818Z 21007KT 19/M03 A3001 RMK A01 T01881026  RH  023%=      5-min Rain = 0
KPG1 211819Z 20007KT 19/M03 A3001 RMK A01 T01881025  RH  023%=      5-min Rain = 0
KPG1 211820Z 19006KT 19/M03 A3001 RMK A01 T01891025  RH  023%=      5-min Rain = 0
KPG1 211821Z 20006KT 19/M03 A3001 RMK A01 T01891026  RH  023%=      5-min Rain = 0
KPG1 211822Z 21006KT 19/M03 A3001 RMK A01 T01891025  RH  023%=      5-min Rain = 0
KPG1 211823Z 22008KT 19/M03 A30 RMK A01 T01901025  RH  023%=      5-min Rain = 0
KPG1 211824Z 23009KT 19/M03 A30 RMK A01 T01921026  RH  023%=      5-min Rain = 0
KPG1 211825Z 23009KT 19/M03 A30 RMK A01 T01931025  RH  023%=      5-min Rain = 0
KPG1 211826Z 23007KT 19/M03 A30 RMK A01 T01931026  RH  023%=      5-min Rain = 0
KPG1 211827Z 23008KT 19/M03 A30 RMK A01 T01931027  RH  022%=      5-min Rain = 0
KPG1 211828Z 22008KT 19/M03 A30 RMK A01 T01931027  RH  022%=      5-min Rain = 0
KPG1 211829Z 22008KT 19/M03 A30 RMK A01 T01921025  RH  023%=      5-min Rain = 0
KPG1 211830Z 22009KT 20/M02 A30 RMK A01 T01951023  RH  023%=      5-min Rain = 0
KPG1 211831Z 22008KT 20/M03 A30 RMK A01 T01951027  RH  022%=      5-min Rain = 0
KPG1 211832Z 22007G12KT 19/M02 A30 RMK A01 T01941024  RH  023%=      5-min Rain = 0
KPG1 211833Z 21008KT 20/M03 A30 RMK A01 T01951025  RH  022%=      5-min Rain = 0
KPG1 211834Z 21008KT 20/M02 A30 RMK A01 T01961022  RH  023%=      5-min Rain = 0
KPG1 211835Z 22008KT 20/M02 A30 RMK A01 T01991021  RH  023%=      5-min Rain = 0
KPG1 211836Z 23009KT 20/M03 A2999 RMK A01 T02001025  RH  022%=      5-min Rain = 0
KPG1 211837Z 24007KT 20/M03 A2999 RMK A01 T01991026  RH  022%=      5-min Rain = 0
KPG1 211838Z 21006KT 20/M02 A2999 RMK A01 T01991024  RH  022%=      5-min Rain = 0
KPG1 211839Z 21005KT 20/M02 A2999 RMK A01 T02001024  RH  022%=      5-min Rain = 0
KPG1 211840Z 24007KT 20/M02 A2999 RMK A01 T02011022  RH  022%=      5-min Rain = 0
KPG1 211841Z 23006KT 20/M02 A2999 RMK A01 T02021021  RH  022%=      5-min Rain = 0
KPG1 211842Z 23005KT 20/M03 A2999 RMK A01 T02021028  RH  021%=      5-min Rain = 0
KPG1 211843Z 25005KT 20/M02 A2999 RMK A01 T02011023  RH  022%=      5-min Rain = 0
KPG1 211844Z 24007KT 20/M02 A2999 RMK A01 T02031023  RH  022%=      5-min Rain = 0
KPG1 211845Z 24009KT 20/M03 A2998 RMK A01 T02041026  RH  021%=      5-min Rain = 0
KPG1 211846Z 22008KT 20/M02 A2998 RMK A01 T02041023  RH  022%=      5-min Rain = 0
KPG1 211847Z 23008KT 20/M03 A2998 RMK A01 T02041027  RH  021%=      5-min Rain = 0
KPG1 211848Z 23008KT 20/M02 A2998 RMK A01 T02041023  RH  022%=      5-min Rain = 0
KPG1 211849Z 22006KT 21/M03 A2998 RMK A01 T02051027  RH  021%=      5-min Rain = 0
KPG1 211850Z 22007KT 20/M03 A2998 RMK A01 T02041025  RH  021%=      5-min Rain = 0
KPG1 211851Z 22006KT 20/M02 A2998 RMK A01 T02041022  RH  022%=      5-min Rain = 0
KPG1 211852Z 23007KT 21/M02 A2998 RMK A01 T02061023  RH  021%=      5-min Rain = 0
KPG1 211853Z 24007KT 21/M03 A2998 RMK A01 T02061027  RH  021%=      5-min Rain = 0
KPG1 211854Z 25007KT 21/M03 A2998 RMK A01 T02051025  RH  021%=      5-min Rain = 0
KPG1 211855Z 23009KT 21/M03 A2998 RMK A01 T02051025  RH  021%=      5-min Rain = 0
KPG1 211856Z 23007KT 21/M03 A2998 RMK A01 T02061026  RH  021%=      5-min Rain = 0
KPG1 211857Z 24005KT 21/M02 A2998 RMK A01 T02051024  RH  021%=      5-min Rain = 0
KPG1 211858Z 23003KT 21/M03 A2998 RMK A01 T02051027  RH  021%=      5-min Rain = 0
KPG1 211859Z 25005KT 21/M02 A2998 RMK A01 T02061022  RH  021%=      5-min Rain = 0
KPG1 211900Z 23004KT 21/M03 A2997 RMK A01 T02081025  RH  021%=      5-min Rain = 0
KPG1 211901Z 22007KT 21/M02 A2997 RMK A01 T02091021  RH  021%=      5-min Rain = 0
KPG1 211902Z 24006KT 21/M02 A2997 RMK A01 T02111022  RH  021%=      5-min Rain = 0
KPG1 211903Z 23007KT 21/M02 A2997 RMK A01 T02131022  RH  021%=      5-min Rain = 0
KPG1 211904Z 23008KT 21/M03 A2997 RMK A01 T02121025  RH  020%=      5-min Rain = 0
KPG1 211905Z 22009KT 21/M02 A2997 RMK A01 T02111023  RH  021%=      5-min Rain = 0
KPG1 211906Z 22008KT 21/M03 A2997 RMK A01 T02111025  RH  020%=      5-min Rain = 0
KPG1 211907Z 21007KT 21/M02 A2997 RMK A01 T02111023  RH  021%=      5-min Rain = 0
KPG1 211908Z 21006KT 21/M02 A2997 RMK A01 T02111024  RH  020%=      5-min Rain = 0
KPG1 211909Z 21005KT 21/M03 A2996 RMK A01 T02121025  RH  020%=      5-min Rain = 0
KPG1 211910Z 21009KT 21/M02 A2996 RMK A01 T02131023  RH  020%=      5-min Rain = 0
KPG1 211911Z 21008KT 21/M02 A2996 RMK A01 T02131024  RH  020%=      5-min Rain = 0
KPG1 211912Z 22007KT 21/M03 A2996 RMK A01 T02131025  RH  020%=      5-min Rain = 0
KPG1 211913Z 21008KT 21/M03 A2996 RMK A01 T02131026  RH  020%=      5-min Rain = 0
KPG1 211914Z 20006KT 21/M03 A2996 RMK A01 T02121025  RH  020%=      5-min Rain = 0
KPG1 211915Z 18005KT 21/M02 A2996 RMK A01 T02121022  RH  021%=      5-min Rain = 0
KPG1 211916Z 19007KT 22/M02 A2996 RMK A01 T02151016  RH  021%=      5-min Rain = 0
KPG1 211917Z 18005KT 22/M02 A2996 RMK A01 T02181018  RH  021%=      5-min Rain = 0
KPG1 211918Z 20006KT 22/M02 A2995 RMK A01 T02191022  RH  020%=      5-min Rain = 0
KPG1 211919Z 22009KT 22/M02 A2995 RMK A01 T02191023  RH  020%=      5-min Rain = 0
KPG1 211920Z 23007KT 22/M02 A2995 RMK A01 T02181023  RH  020%=      5-min Rain = 0
KPG1 211921Z 21005KT 22/M02 A2995 RMK A01 T02171022  RH  020%=      5-min Rain = 0
KPG1 211922Z 21008KT 22/M02 A2995 RMK A01 T02171021  RH  020%=      5-min Rain = 0
KPG1 211923Z 21008KT 22/M02 A2995 RMK A01 T02191021  RH  020%=      5-min Rain = 0
KPG1 211924Z 22006KT 22/M02 A2995 RMK A01 T02191022  RH  020%=      5-min Rain = 0
KPG1 211925Z 22007KT 22/M02 A2994 RMK A01 T02191021  RH  020%=      5-min Rain = 0
KPG1 211926Z 22007KT 22/M02 A2994 RMK A01 T02191020  RH  020%=      5-min Rain = 0
KPG1 211927Z 22007KT 22/M02 A2994 RMK A01 T02201022  RH  020%=      5-min Rain = 0
KPG1 211928Z 22008KT 22/M02 A2994 RMK A01 T02211024  RH  019%=      5-min Rain = 0
KPG1 211929Z 22009KT 22/M02 A2994 RMK A01 T02211023  RH  019%=      5-min Rain = 0
KPG1 211930Z 24007KT 22/M02 A2994 RMK A01 T02211022  RH  020%=      5-min Rain = 0
KPG1 211931Z 23006KT 22/M02 A2994 RMK A01 T02211022  RH  020%=      5-min Rain = 0
KPG1 211932Z 21005KT 22/M02 A2994 RMK A01 T02231017  RH  020%=      5-min Rain = 0
KPG1 211933Z 21005KT 23/M02 A2994 RMK A01 T02251018  RH  020%=      5-min Rain = 0
KPG1 211934Z 21006KT 23/M02 A2994 RMK A01 T02251019  RH  019%=      5-min Rain = 0
KPG1 211935Z 21007KT 23/M02 A2993 RMK A01 T02251021  RH  019%=      5-min Rain = 0
KPG1 211936Z 22008KT 22/M02 A2993 RMK A01 T02231021  RH  019%=      5-min Rain = 0
KPG1 211937Z 21008KT 22/M02 A2993 RMK A01 T02241019  RH  020%=      5-min Rain = 0
KPG1 211938Z 20006KT 23/M02 A2993 RMK A01 T02251021  RH  019%=      5-min Rain = 0
KPG1 211939Z 22005KT 23/M02 A2993 RMK A01 T02251022  RH  019%=      5-min Rain = 0
KPG1 211940Z 22005KT 23/M02 A2993 RMK A01 T02251020  RH  019%=      5-min Rain = 0
KPG1 211941Z 23006KT 23/M02 A2993 RMK A01 T02271017  RH  020%=      5-min Rain = 0
KPG1 211942Z 23005KT 23/M02 A2993 RMK A01 T02301016  RH  019%=      5-min Rain = 0
KPG1 211943Z 22005KT 23/M02 A2993 RMK A01 T02331018  RH  019%=      5-min Rain = 0
KPG1 211944Z 21008KT 23/M02 A2993 RMK A01 T02331022  RH  018%=      5-min Rain = 0
KPG1 211945Z 18006KT 23/M02 A2993 RMK A01 T02311023  RH  018%=      5-min Rain = 0
KPG1 211946Z 17005G10KT 23/M02 A2993 RMK A01 T02311019  RH  019%=      5-min Rain = 0
KPG1 211947Z 15010KT 24/M02 A2993 RMK A01 T02351020  RH  018%=      5-min Rain = 0
KPG1 211948Z 16009KT 24/M03 A2993 RMK A01 T02371025  RH  017%=      5-min Rain = 0
KPG1 211949Z 18007KT 24/M03 A2992 RMK A01 T02351028  RH  017%=      5-min Rain = 0
KPG1 211950Z 18008KT 23/M03 A2992 RMK A01 T02341027  RH  017%=      5-min Rain = 0
KPG1 211951Z 19010KT 23/M02 A2992 RMK A01 T02341023  RH  018%=      5-min Rain = 0
KPG1 211952Z 19013KT 24/M02 A2992 RMK A01 T02371022  RH  018%=      5-min Rain = 0
KPG1 211953Z 20012KT 24/M02 A2992 RMK A01 T02391024  RH  017%=      5-min Rain = 0
KPG1 211954Z 20011KT 24/M03 A2992 RMK A01 T02391026  RH  017%=      5-min Rain = 0
KPG1 211955Z 21008KT 24/M03 A2992 RMK A01 T02381025  RH  017%=      5-min Rain = 0
KPG1 211956Z 18005KT 24/M03 A2992 RMK A01 T02381026  RH  017%=      5-min Rain = 0
KPG1 211957Z 17003KT 24/M02 A2992 RMK A01 T02391021  RH  018%=      5-min Rain = 0
KPG1 211958Z 21004KT 24/M02 A2992 RMK A01 T02421019  RH  018%=      5-min Rain = 0
KPG1 211959Z 21007KT 24/M02 A2992 RMK A01 T02431021  RH  017%=      5-min Rain = 0
KPG1 212000Z 20010KT 24/M02 A2992 RMK A01 T02441022  RH  017%=      5-min Rain = 0
KPG1 212001Z 20009KT 24/M02 A2992 RMK A01 T02431022  RH  017%=      5-min Rain = 0
KPG1 212002Z 20011KT 24/M02 A2992 RMK A01 T02421023  RH  017%=      5-min Rain = 0
KPG1 212003Z 18010KT 24/M03 A2991 RMK A01 T02401026  RH  017%=      5-min Rain = 0
KPG1 212004Z 18008KT 24/M03 A2991 RMK A01 T02381025  RH  017%=      5-min Rain = 0
KPG1 212005Z 23008KT 24/M02 A2991 RMK A01 T02381023  RH  017%=      5-min Rain = 0
KPG1 212006Z 22009KT 24/M03 A2991 RMK A01 T02391025  RH  017%=      5-min Rain = 0
KPG1 212007Z 21007KT 24/M03 A2991 RMK A01 T02401026  RH  017%=      5-min Rain = 0
KPG1 212008Z 19006KT 24/M02 A2991 RMK A01 T02391023  RH  017%=      5-min Rain = 0
KPG1 212009Z 22007KT 24/M02 A2991 RMK A01 T02401022  RH  017%=      5-min Rain = 0
KPG1 212010Z 19007KT 24/M02 A2991 RMK A01 T02421024  RH  017%=      5-min Rain = 0
KPG1 212011Z 20008KT 24/M02 A2991 RMK A01 T02421024  RH  017%=      5-min Rain = 0
KPG1 212012Z 19009KT 24/M02 A2991 RMK A01 T02421020  RH  017%=      5-min Rain = 0
KPG1 212013Z 20011KT 25/M02 A2991 RMK A01 T02451020  RH  017%=      5-min Rain = 0
KPG1 212014Z 21009KT 25/M02 A2991 RMK A01 T02451023  RH  017%=      5-min Rain = 0
KPG1 212015Z 21008KT 24/M03 A299 RMK A01 T02431027  RH  017%=      5-min Rain = 0
KPG1 212016Z 20006KT 24/M02 A299 RMK A01 T02421023  RH  017%=      5-min Rain = 0
KPG1 212017Z 19007KT 24/M02 A299 RMK A01 T02431020  RH  017%=      5-min Rain = 0
KPG1 212018Z 19010KT 25/M02 A299 RMK A01 T02461023  RH  017%=      5-min Rain = 0
KPG1 212019Z 18010KT 25/M02 A299 RMK A01 T02451023  RH  017%=      5-min Rain = 0
KPG1 212020Z 19007KT 25/M03 A299 RMK A01 T02451026  RH  016%=      5-min Rain = 0
KPG1 212021Z 19008KT 24/M02 A299 RMK A01 T02431024  RH  017%=      5-min Rain = 0
KPG1 212022Z 18009KT 24/M03 A299 RMK A01 T02441025  RH  017%=      5-min Rain = 0
KPG1 212023Z 17010KT 24/M03 A299 RMK A01 T02441025  RH  017%=      5-min Rain = 0
KPG1 212024Z 18006KT 24/M03 A299 RMK A01 T02441029  RH  016%=      5-min Rain = 0
KPG1 212025Z 16007G15KT 24/M02 A299 RMK A01 T02441023  RH  017%=      5-min Rain = 0
KPG1 212026Z 16011KT 25/M02 A299 RMK A01 T02461024  RH  017%=      5-min Rain = 0
KPG1 212027Z 15008KT 25/M03 A2989 RMK A01 T02461025  RH  016%=      5-min Rain = 0
KPG1 212028Z 17011KT 25/M03 A2989 RMK A01 T02471025  RH  016%=      5-min Rain = 0
KPG1 212029Z 18009KT 25/M03 A2989 RMK A01 T02471026  RH  016%=      5-min Rain = 0
KPG1 212030Z 17009KT 25/M02 A2989 RMK A01 T02461024  RH  017%=      5-min Rain = 0
KPG1 212031Z 16009KT 25/M02 A2989 RMK A01 T02481020  RH  017%=      5-min Rain = 0
KPG1 212032Z 18012KT 25/M02 A2989 RMK A01 T02501023  RH  016%=      5-min Rain = 0
KPG1 212033Z 16013KT 25/M02 A2989 RMK A01 T02501022  RH  016%=      5-min Rain = 0
KPG1 212034Z 16011KT 25/M03 A2989 RMK A01 T02491025  RH  016%=      5-min Rain = 0
KPG1 212035Z 16013KT 25/M03 A2989 RMK A01 T02481026  RH  016%=      5-min Rain = 0
KPG1 212036Z 16012KT 25/M03 A2989 RMK A01 T02471025  RH  016%=      5-min Rain = 0
KPG1 212037Z 17012KT 25/M03 A2989 RMK A01 T02471025  RH  016%=      5-min Rain = 0
KPG1 212038Z 19010KT 25/M03 A2989 RMK A01 T02471025  RH  016%=      5-min Rain = 0
KPG1 212039Z 19010KT 25/M03 A2988 RMK A01 T02451028  RH  016%=      5-min Rain = 0
KPG1 212040Z 17014KT 24/M03 A2988 RMK A01 T02441027  RH  016%=      5-min Rain = 0
KPG1 212041Z 17014KT 24/M03 A2988 RMK A01 T02441027  RH  016%=      5-min Rain = 0
KPG1 212042Z 17011KT 24/M03 A2988 RMK A01 T02441026  RH  017%=      5-min Rain = 0
KPG1 212043Z 17009KT 25/M03 A2988 RMK A01 T02451025  RH  017%=      5-min Rain = 0
KPG1 212044Z 16010KT 25/M02 A2988 RMK A01 T02471023  RH  017%=      5-min Rain = 0
KPG1 212045Z 16009G14KT 25/M03 A2988 RMK A01 T02471026  RH  016%=      5-min Rain = 0
KPG1 212046Z 16012KT 25/M02 A2988 RMK A01 T02471023  RH  017%=      5-min Rain = 0
KPG1 212047Z 16012KT 25/M02 A2988 RMK A01 T02491021  RH  017%=      5-min Rain = 0
KPG1 212048Z 16013KT 25/M02 A2988 RMK A01 T02501024  RH  016%=      5-min Rain = 0
KPG1 212049Z 15013KT 25/M03 A2988 RMK A01 T02491026  RH  016%=      5-min Rain = 0
KPG1 212050Z 17013KT 25/M02 A2988 RMK A01 T02471023  RH  017%=      5-min Rain = 0
KPG1 212051Z 17013KT 25/M03 A2988 RMK A01 T02471025  RH  016%=      5-min Rain = 0
KPG1 212052Z 16014KT 25/M02 A2987 RMK A01 T02471023  RH  017%=      5-min Rain = 0
KPG1 212053Z 16011KT 25/M03 A2987 RMK A01 T02481025  RH  016%=      5-min Rain = 0
KPG1 212054Z 16011KT 25/M02 A2987 RMK A01 T02481024  RH  016%=      5-min Rain = 0
KPG1 212055Z 16015KT 25/M03 A2987 RMK A01 T02481025  RH  016%=      5-min Rain = 0
KPG1 212056Z 17013KT 25/M03 A2987 RMK A01 T02471025  RH  016%=      5-min Rain = 0
KPG1 212057Z 17011KT 25/M03 A2987 RMK A01 T02461027  RH  016%=      5-min Rain = 0
KPG1 212058Z 14010KT 25/M02 A2987 RMK A01 T02461023  RH  017%=      5-min Rain = 0
KPG1 212059Z 17012KT 25/M02 A2987 RMK A01 T02481022  RH  017%=      5-min Rain = 0
KPG1 212100Z 16013KT 25/M02 A2986 RMK A01 T02491024  RH  016%=      5-min Rain = 0
KPG1 212101Z 15013KT 25/M02 A2986 RMK A01 T02491024  RH  016%=      5-min Rain = 0
KPG1 212102Z 15012KT 25/M03 A2986 RMK A01 T02481026  RH  016%=      5-min Rain = 0
KPG1 212103Z 16012KT 25/M03 A2986 RMK A01 T02471026  RH  016%=      5-min Rain = 0
KPG1 212104Z 16013KT 25/M03 A2986 RMK A01 T02471025  RH  016%=      5-min Rain = 0
KPG1 212105Z 15012KT 25/M03 A2986 RMK A01 T02471026  RH  016%=      5-min Rain = 0
KPG1 212106Z 15015KT 25/M03 A2986 RMK A01 T02471028  RH  016%=      5-min Rain = 0
KPG1 212107Z 14011G16KT 25/M03 A2986 RMK A01 T02461027  RH  016%=      5-min Rain = 0
KPG1 212108Z 16011KT 25/M02 A2986 RMK A01 T02471022  RH  017%=      5-min Rain = 0
KPG1 212109Z 15010KT 25/M02 A2986 RMK A01 T02501022  RH  016%=      5-min Rain = 0
KPG1 212110Z 15011G17KT 25/M02 A2986 RMK A01 T02511024  RH  016%=      5-min Rain = 0
KPG1 212111Z 16014KT 25/M03 A2985 RMK A01 T02501025  RH  016%=      5-min Rain = 0
KPG1 212112Z 16011KT 25/M03 A2985 RMK A01 T02491026  RH  016%=      5-min Rain = 0
KPG1 212113Z 16010KT 25/M02 A2985 RMK A01 T02481023  RH  017%=      5-min Rain = 0
KPG1 212114Z 16011KT 25/M02 A2985 RMK A01 T02501023  RH  016%=      5-min Rain = 0
KPG1 212115Z 15010KT 25/M03 A2985 RMK A01 T02501025  RH  016%=      5-min Rain = 0
KPG1 212116Z 15011KT 25/M02 A2985 RMK A01 T02501024  RH  016%=      5-min Rain = 0
KPG1 212117Z 15008KT 25/M03 A2985 RMK A01 T02501025  RH  016%=      5-min Rain = 0
KPG1 212118Z 16012KT 25/M02 A2985 RMK A01 T02501022  RH  016%=      5-min Rain = 0
KPG1 212119Z 17010KT 25/M02 A2985 RMK A01 T02511021  RH  016%=      5-min Rain = 0
KPG1 212120Z 16012KT 25/M02 A2985 RMK A01 T02521022  RH  016%=      5-min Rain = 0
KPG1 212121Z 15011KT 25/M02 A2985 RMK A01 T02521023  RH  016%=      5-min Rain = 0
KPG1 212122Z 15013KT 25/M02 A2985 RMK A01 T02521023  RH  016%=      5-min Rain = 0
KPG1 212123Z 15014KT 25/M03 A2985 RMK A01 T02511026  RH  016%=      5-min Rain = 0
KPG1 212124Z 15012KT 25/M03 A2985 RMK A01 T02501026  RH  016%=      5-min Rain = 0
KPG1 212125Z 16011KT 25/M03 A2985 RMK A01 T02491027  RH  016%=      5-min Rain = 0
KPG1 212126Z 16010KT 25/M03 A2985 RMK A01 T02491027  RH  016%=      5-min Rain = 0
KPG1 212127Z 15011KT 25/M02 A2985 RMK A01 T02491024  RH  016%=      5-min Rain = 0
KPG1 212128Z 15013KT 25/M02 A2985 RMK A01 T02491024  RH  016%=      5-min Rain = 0
KPG1 212129Z 15013KT 25/M02 A2985 RMK A01 T02501024  RH  016%=      5-min Rain = 0
KPG1 212130Z 15014KT 25/M03 A2984 RMK A01 T02501025  RH  016%=      5-min Rain = 0
KPG1 212131Z 15011KT 25/M03 A2984 RMK A01 T02501025  RH  016%=      5-min Rain = 0
KPG1 212132Z 16010KT 25/M03 A2984 RMK A01 T02501025  RH  016%=      5-min Rain = 0
KPG1 212133Z 16009KT 25/M02 A2984 RMK A01 T02501024  RH  016%=      5-min Rain = 0
KPG1 212134Z 15012KT 25/M02 A2984 RMK A01 T02521020  RH  016%=      5-min Rain = 0
KPG1 212135Z 15012KT 25/M02 A2984 RMK A01 T02531024  RH  016%=      5-min Rain = 0
KPG1 212136Z 15012KT 25/M02 A2984 RMK A01 T02521024  RH  016%=      5-min Rain = 0
KPG1 212137Z 14011KT 25/M02 A2984 RMK A01 T02521024  RH  016%=      5-min Rain = 0
KPG1 212138Z 16011KT 25/M02 A2984 RMK A01 T02521023  RH  016%=      5-min Rain = 0
KPG1 212139Z 16009KT 25/M02 A2984 RMK A01 T02531024  RH  016%=      5-min Rain = 0
KPG1 212140Z 16012G17KT 25/M02 A2984 RMK A01 T02521023  RH  016%=      5-min Rain = 0
KPG1 212141Z 15012KT 25/M02 A2984 RMK A01 T02531024  RH  016%=      5-min Rain = 0
KPG1 212142Z 15010KT 25/M02 A2984 RMK A01 T02531024  RH  016%=      5-min Rain = 0
KPG1 212143Z 15011KT 25/M02 A2984 RMK A01 T02531023  RH  016%=      5-min Rain = 0
KPG1 212144Z 15009KT 25/M03 A2984 RMK A01 T02531025  RH  016%=      5-min Rain = 0
KPG1 212145Z 16008G13KT 25/M02 A2984 RMK A01 T02531020  RH  016%=      5-min Rain = 0
KPG1 212146Z 16011KT 25/M02 A2984 RMK A01 T02541024  RH  016%=      5-min Rain = 0
KPG1 212147Z 15011KT 25/M02 A2984 RMK A01 T02541024  RH  016%=      5-min Rain = 0
KPG1 212148Z 14011KT 25/M02 A2984 RMK A01 T02531022  RH  016%=      5-min Rain = 0
KPG1 212149Z 14010KT 25/M02 A2983 RMK A01 T02531023  RH  016%=      5-min Rain = 0
KPG1 212150Z 14010G16KT 25/M02 A2983 RMK A01 T02541020  RH  016%=      5-min Rain = 0
KPG1 212151Z 14012KT 26/M02 A2983 RMK A01 T02561023  RH  016%=      5-min Rain = 0
KPG1 212152Z 14012KT 25/M03 A2983 RMK A01 T02541026  RH  016%=      5-min Rain = 0
KPG1 212153Z 15015KT 25/M02 A2983 RMK A01 T02531024  RH  016%=      5-min Rain = 0
KPG1 212154Z 15012KT 25/M02 A2983 RMK A01 T02531024  RH  016%=      5-min Rain = 0
KPG1 212155Z 15011KT 25/M02 A2983 RMK A01 T02531023  RH  016%=      5-min Rain = 0
KPG1 212156Z 14010KT 25/M02 A2983 RMK A01 T02541024  RH  016%=      5-min Rain = 0
KPG1 212157Z 14013KT 26/M02 A2983 RMK A01 T02551022  RH  016%=      5-min Rain = 0
KPG1 212158Z 14013KT 26/M03 A2983 RMK A01 T02551025  RH  016%=      5-min Rain = 0
KPG1 212159Z 15012KT 25/M03 A2983 RMK A01 T02541025  RH  016%=      5-min Rain = 0
KPG1 212200Z 15011G16KT 25/M02 A2983 RMK A01 T02541023  RH  016%=      5-min Rain = 0
KPG1 212201Z 15009G14KT 26/M02 A2983 RMK A01 T02551023  RH  016%=      5-min Rain = 0
KPG1 212202Z 16012KT 26/M02 A2983 RMK A01 T02561021  RH  016%=      5-min Rain = 0
KPG1 212203Z 15012KT 26/M02 A2982 RMK A01 T02571024  RH  016%=      5-min Rain = 0
KPG1 212204Z 16009KT 26/M02 A2983 RMK A01 T02571022  RH  016%=      5-min Rain = 0
KPG1 212205Z 17010KT 26/M02 A2983 RMK A01 T02571020  RH  016%=      5-min Rain = 0
KPG1 212206Z 16013KT 26/M02 A2982 RMK A01 T02581022  RH  016%=      5-min Rain = 0
KPG1 212207Z 15012KT 26/M02 A2982 RMK A01 T02581023  RH  015%=      5-min Rain = 0
KPG1 212208Z 16012KT 26/M02 A2982 RMK A01 T02581024  RH  015%=      5-min Rain = 0
KPG1 212209Z 17012KT 26/M02 A2982 RMK A01 T02581024  RH  015%=      5-min Rain = 0
KPG1 212210Z 17011KT 26/M02 A2982 RMK A01 T02571023  RH  016%=      5-min Rain = 0
KPG1 212211Z 18011KT 26/M02 A2982 RMK A01 T02581019  RH  016%=      5-min Rain = 0
KPG1 212212Z 18011KT 26/M02 A2982 RMK A01 T02601021  RH  016%=      5-min Rain = 0
KPG1 212213Z 17013KT 26/M02 A2982 RMK A01 T02601021  RH  016%=      5-min Rain = 0
KPG1 212214Z 17012KT 26/M02 A2982 RMK A01 T02601021  RH  016%=      5-min Rain = 0
KPG1 212215Z 17012KT 26/M02 A2982 RMK A01 T02601022  RH  015%=      5-min Rain = 0
KPG1 212216Z 17012KT 26/M02 A2982 RMK A01 T02601021  RH  016%=      5-min Rain = 0
KPG1 212217Z 17014KT 26/M02 A2982 RMK A01 T02601021  RH  016%=      5-min Rain = 0
KPG1 212218Z 17011KT 26/M02 A2982 RMK A01 T02601021  RH  016%=      5-min Rain = 0
KPG1 212219Z 17012KT 26/M02 A2982 RMK A01 T02601021  RH  016%=      5-min Rain = 0
KPG1 212220Z 16011KT 26/M02 A2982 RMK A01 T02601020  RH  016%=      5-min Rain = 0
KPG1 212221Z 17013KT 26/M02 A2982 RMK A01 T02601019  RH  016%=      5-min Rain = 0
KPG1 212222Z 17013KT 26/M02 A2982 RMK A01 T02601022  RH  016%=      5-min Rain = 0
KPG1 212223Z 17011KT 26/M02 A2982 RMK A01 T02591021  RH  016%=      5-min Rain = 0
KPG1 212224Z 17009KT 26/M02 A2982 RMK A01 T02591021  RH  016%=      5-min Rain = 0
KPG1 212225Z 17008KT 26/M02 A2982 RMK A01 T02591019  RH  016%=      5-min Rain = 0
KPG1 212226Z 17009KT 26/M02 A2982 RMK A01 T02611016  RH  016%=      5-min Rain = 0
KPG1 212227Z 16010KT 26/M02 A2982 RMK A01 T02621019  RH  016%=      5-min Rain = 0
KPG1 212228Z 16014KT 26/M02 A2982 RMK A01 T02621019  RH  016%=      5-min Rain = 0
KPG1 212229Z 16014KT 26/M02 A2982 RMK A01 T02601024  RH  015%=      5-min Rain = 0
KPG1 212230Z 15009KT 26/M02 A2982 RMK A01 T02571024  RH  015%=      5-min Rain = 0
KPG1 212231Z 16012KT 26/M02 A2982 RMK A01 T02571022  RH  016%=      5-min Rain = 0
KPG1 212232Z 15011KT 26/M02 A2982 RMK A01 T02571023  RH  016%=      5-min Rain = 0
KPG1 212233Z 16011KT 26/M02 A2982 RMK A01 T02571022  RH  016%=      5-min Rain = 0
KPG1 212234Z 16010KT 26/M02 A2982 RMK A01 T02571023  RH  016%=      5-min Rain = 0
KPG1 212235Z 17012KT 26/M02 A2982 RMK A01 T02571024  RH  016%=      5-min Rain = 0
KPG1 212236Z 17012KT 26/M03 A2982 RMK A01 T02571025  RH  015%=      5-min Rain = 0
KPG1 212237Z 16010KT 26/M02 A2982 RMK A01 T02571023  RH  016%=      5-min Rain = 0
KPG1 212238Z 15010KT 26/M02 A2982 RMK A01 T02571024  RH  015%=      5-min Rain = 0
KPG1 212239Z 16009KT 26/M02 A2982 RMK A01 T02571022  RH  016%=      5-min Rain = 0
KPG1 212240Z 16012KT 26/M02 A2981 RMK A01 T02581022  RH  016%=      5-min Rain = 0
KPG1 212241Z 16011KT 26/M02 A2981 RMK A01 T02591022  RH  016%=      5-min Rain = 0
KPG1 212242Z 16010KT 26/M02 A2981 RMK A01 T02591023  RH  016%=      5-min Rain = 0
KPG1 212243Z 17010KT 26/M02 A2981 RMK A01 T02581023  RH  015%=      5-min Rain = 0
KPG1 212244Z 17008KT 26/M02 A2981 RMK A01 T02581021  RH  016%=      5-min Rain = 0
KPG1 212245Z 15011KT 26/M02 A2981 RMK A01 T02591021  RH  016%=      5-min Rain = 0
KPG1 212246Z 15011KT 26/M02 A2981 RMK A01 T02591023  RH  016%=      5-min Rain = 0
KPG1 212247Z 16010KT 26/M02 A2981 RMK A01 T02591021  RH  016%=      5-min Rain = 0
KPG1 212248Z 17011KT 26/M02 A2981 RMK A01 T02581021  RH  016%=      5-min Rain = 0
KPG1 212249Z 17012KT 26/M02 A2981 RMK A01 T02581023  RH  016%=      5-min Rain = 0
KPG1 212250Z 17009KT 26/M02 A2981 RMK A01 T02581022  RH  016%=      5-min Rain = 0
KPG1 212251Z 17012KT 26/M02 A2981 RMK A01 T02581020  RH  016%=      5-min Rain = 0
KPG1 212252Z 17012KT 26/M02 A2981 RMK A01 T02581020  RH  016%=      5-min Rain = 0
KPG1 212253Z 17011KT 26/M02 A2981 RMK A01 T02591020  RH  016%=      5-min Rain = 0
KPG1 212254Z 16010KT 26/M02 A2981 RMK A01 T02591021  RH  016%=      5-min Rain = 0
KPG1 212255Z 16012KT 26/M02 A2981 RMK A01 T02591021  RH  016%=      5-min Rain = 0
KPG1 212256Z 16012KT 26/M02 A2981 RMK A01 T02581023  RH  016%=      5-min Rain = 0
KPG1 212257Z 16011KT 26/M02 A2981 RMK A01 T02581021  RH  016%=      5-min Rain = 0
KPG1 212258Z 16011KT 26/M02 A2981 RMK A01 T02581020  RH  016%=      5-min Rain = 0
KPG1 212259Z 17009KT 26/M02 A2981 RMK A01 T02581019  RH  016%=      5-min Rain = 0
KPG1 212300Z 16011KT 26/M02 A2981 RMK A01 T02591018  RH  016%=      5-min Rain = 0
KPG1 212301Z 17011KT 26/M02 A2981 RMK A01 T02591022  RH  016%=      5-min Rain = 0
KPG1 212302Z 17010KT 26/M02 A2981 RMK A01 T02581021  RH  016%=      5-min Rain = 0
KPG1 212303Z 16009KT 26/M02 A2981 RMK A01 T02581021  RH  016%=      5-min Rain = 0
KPG1 212304Z 16011KT 26/M02 A2981 RMK A01 T02591021  RH  016%=      5-min Rain = 0
KPG1 212305Z 15011KT 26/M02 A2981 RMK A01 T02581021  RH  016%=      5-min Rain = 0
KPG1 212306Z 15015KT 26/M02 A2981 RMK A01 T02571022  RH  016%=      5-min Rain = 0
KPG1 212307Z 15014KT 26/M02 A2981 RMK A01 T02561022  RH  016%=      5-min Rain = 0
KPG1 212308Z 16015KT 26/M02 A2981 RMK A01 T02561022  RH  016%=      5-min Rain = 0
KPG1 212309Z 16014KT 26/M02 A2981 RMK A01 T02561023  RH  016%=      5-min Rain = 0
KPG1 212310Z 16013KT 26/M02 A2981 RMK A01 T02551023  RH  016%=      5-min Rain = 0
KPG1 212311Z 16012KT 26/M02 A2981 RMK A01 T02551022  RH  016%=      5-min Rain = 0
KPG1 212312Z 17011KT 26/M02 A2981 RMK A01 T02551022  RH  016%=      5-min Rain = 0
KPG1 212313Z 17011KT 26/M02 A2981 RMK A01 T02551021  RH  016%=      5-min Rain = 0
KPG1 212314Z 16010KT 26/M02 A2981 RMK A01 T02551021  RH  016%=      5-min Rain = 0
KPG1 212315Z 16009G14KT 26/M02 A2981 RMK A01 T02551019  RH  016%=      5-min Rain = 0
KPG1 212316Z 16010KT 26/M02 A2981 RMK A01 T02561020  RH  016%=      5-min Rain = 0
KPG1 212317Z 16010KT 26/M02 A2981 RMK A01 T02561020  RH  016%=      5-min Rain = 0
KPG1 212318Z 15011KT 26/M02 A2981 RMK A01 T02561019  RH  016%=      5-min Rain = 0
KPG1 212319Z 16011KT 26/M02 A2981 RMK A01 T02561019  RH  016%=      5-min Rain = 0
KPG1 212320Z 16013KT 26/M02 A298 RMK A01 T02551020  RH  016%=      5-min Rain = 0
KPG1 212321Z 16014KT 26/M02 A298 RMK A01 T02551021  RH  016%=      5-min Rain = 0
KPG1 212322Z 16015KT 26/M02 A298 RMK A01 T02551021  RH  016%=      5-min Rain = 0
KPG1 212323Z 16013KT 25/M02 A298 RMK A01 T02541021  RH  016%=      5-min Rain = 0
KPG1 212324Z 16011KT 25/M02 A298 RMK A01 T02541020  RH  016%=      5-min Rain = 0
KPG1 212325Z 15011KT 25/M02 A298 RMK A01 T02541020  RH  016%=      5-min Rain = 0
KPG1 212326Z 16008KT 25/M02 A298 RMK A01 T02541018  RH  017%=      5-min Rain = 0
KPG1 212327Z 15011KT 25/M02 A298 RMK A01 T02541018  RH  017%=      5-min Rain = 0
KPG1 212328Z 16011KT 25/M02 A298 RMK A01 T02541018  RH  017%=      5-min Rain = 0
KPG1 212329Z 16012KT 25/M02 A298 RMK A01 T02541019  RH  016%=      5-min Rain = 0
KPG1 212330Z 15014KT 25/M02 A298 RMK A01 T02531020  RH  016%=      5-min Rain = 0
KPG1 212331Z 16014KT 25/M02 A298 RMK A01 T02531020  RH  016%=      5-min Rain = 0
KPG1 212332Z 15013KT 25/M02 A298 RMK A01 T02531020  RH  016%=      5-min Rain = 0
KPG1 212333Z 16010KT 25/M02 A298 RMK A01 T02521021  RH  016%=      5-min Rain = 0
KPG1 212334Z 16010KT 25/M02 A298 RMK A01 T02521019  RH  017%=      5-min Rain = 0
KPG1 212335Z 16011KT 25/M02 A298 RMK A01 T02521019  RH  017%=      5-min Rain = 0
KPG1 212336Z 15011KT 25/M02 A298 RMK A01 T02521019  RH  017%=      5-min Rain = 0
KPG1 212337Z 16011KT 25/M02 A298 RMK A01 T02521018  RH  017%=      5-min Rain = 0
KPG1 212338Z 15008KT 25/M02 A298 RMK A01 T02511018  RH  017%=      5-min Rain = 0
KPG1 212339Z 15011KT 25/M02 A298 RMK A01 T02511017  RH  017%=      5-min Rain = 0
KPG1 212340Z 15009KT 25/M02 A298 RMK A01 T02501018  RH  017%=      5-min Rain = 0
KPG1 212341Z 15007KT 25/M02 A298 RMK A01 T02511016  RH  017%=      5-min Rain = 0
KPG1 212342Z 14008KT 25/M02 A298 RMK A01 T02501016  RH  017%=      5-min Rain = 0
KPG1 212343Z 14009KT 25/M02 A298 RMK A01 T02501017  RH  017%=      5-min Rain = 0
KPG1 212344Z 15009KT 25/M02 A298 RMK A01 T02501018  RH  017%=      5-min Rain = 0
KPG1 212345Z 15008KT 25/M02 A298 RMK A01 T02501017  RH  017%=      5-min Rain = 0
KPG1 212346Z 13008KT 25/M02 A298 RMK A01 T02491017  RH  017%=      5-min Rain = 0
KPG1 212347Z 15008KT 25/M02 A298 RMK A01 T02491017  RH  017%=      5-min Rain = 0
KPG1 212348Z 14009KT 25/M02 A2979 RMK A01 T02491017  RH  017%=      5-min Rain = 0
KPG1 212349Z 14008KT 25/M02 A2979 RMK A01 T02491018  RH  017%=      5-min Rain = 0
KPG1 212350Z 13006KT 25/M02 A298 RMK A01 T02491018  RH  017%=      5-min Rain = 0
KPG1 212351Z 13009KT 25/M02 A298 RMK A01 T02491017  RH  017%=      5-min Rain = 0
KPG1 212352Z 13010KT 25/M02 A298 RMK A01 T02481019  RH  017%=      5-min Rain = 0
KPG1 212353Z 12009KT 25/M02 A298 RMK A01 T02481019  RH  017%=      5-min Rain = 0
KPG1 212354Z 08011KT 25/M01 A298 RMK A01 T02471010  RH  018%=      5-min Rain = 0
KPG1 212355Z 06012KT 24/01 A298 RMK A01 T02350005  RH  022%=      5-min Rain = 0
KPG1 212356Z 05014KT 22/01 A298 RMK A01 T02230010  RH  024%=      5-min Rain = 0
KPG1 212357Z 05012KT 22/01 A298 RMK A01 T02160012  RH  026%=      5-min Rain = 0
KPG1 212358Z 05012KT 21/01 A298 RMK A01 T02120014  RH  027%=      5-min Rain = 0
KPG1 212359Z 05014KT 21/02 A298 RMK A01 T02100015  RH  027%=      5-min Rain = 0
KPG1 220000Z 05014KT 21/01 A298 RMK A01 T02080014  RH  028%=      5-min Rain = 0
KPG1 220001Z 05014KT 21/02 A298 RMK A01 T02050015  RH  028%=      5-min Rain = 0
KPG1 220002Z 05013KT 20/02 A298 RMK A01 T02030016  RH  029%=      5-min Rain = 0
KPG1 220003Z 05014KT 20/02 A298 RMK A01 T02020017  RH  029%=      5-min Rain = 0
KPG1 220004Z 04012KT 20/02 A298 RMK A01 T02010017  RH  029%=      5-min Rain = 0
KPG1 220005Z 04014KT 20/02 A298 RMK A01 T02000017  RH  030%=      5-min Rain = 0
KPG1 220006Z 04013KT 20/02 A298 RMK A01 T01990017  RH  030%=      5-min Rain = 0
KPG1 220007Z 04013KT 20/02 A298 RMK A01 T01970016  RH  030%=      5-min Rain = 0
KPG1 220008Z 03014KT 20/02 A298 RMK A01 T01960015  RH  030%=      5-min Rain = 0
KPG1 220009Z 03013KT 20/02 A298 RMK A01 T01950015  RH  030%=      5-min Rain = 0
KPG1 220010Z 03012KT 20/02 A298 RMK A01 T01950016  RH  030%=      5-min Rain = 0
KPG1 220011Z 03012KT 19/02 A298 RMK A01 T01930016  RH  031%=      5-min Rain = 0
KPG1 220012Z 03013KT 19/02 A298 RMK A01 T01920017  RH  031%=      5-min Rain = 0
KPG1 220013Z 03012KT 19/02 A298 RMK A01 T01920017  RH  031%=      5-min Rain = 0
KPG1 220014Z 03012KT 19/02 A298 RMK A01 T01910018  RH  031%=      5-min Rain = 0
KPG1 220015Z 02013KT 19/02 A298 RMK A01 T01900018  RH  032%=      5-min Rain = 0
KPG1 220016Z 02013KT 19/02 A298 RMK A01 T01890017  RH  032%=      5-min Rain = 0
KPG1 220017Z 02014KT 19/02 A298 RMK A01 T01880016  RH  032%=      5-min Rain = 0
KPG1 220018Z 02013KT 19/02 A2981 RMK A01 T01870016  RH  032%=      5-min Rain = 0
KPG1 220019Z 03014KT 19/02 A2981 RMK A01 T01860016  RH  032%=      5-min Rain = 0
KPG1 220020Z 03012KT 19/02 A2981 RMK A01 T01860016  RH  032%=      5-min Rain = 0
KPG1 220021Z 03013KT 19/02 A2981 RMK A01 T01850016  RH  032%=      5-min Rain = 0
KPG1 220022Z 03012KT 18/02 A2981 RMK A01 T01840016  RH  032%=      5-min Rain = 0
KPG1 220023Z 04015KT 18/02 A2981 RMK A01 T01830016  RH  033%=      5-min Rain = 0
KPG1 220024Z 04013KT 18/02 A2981 RMK A01 T01820016  RH  033%=      5-min Rain = 0
KPG1 220025Z 04013KT 18/02 A2981 RMK A01 T01810016  RH  033%=      5-min Rain = 0
KPG1 220026Z 04013KT 18/02 A2981 RMK A01 T01800015  RH  033%=      5-min Rain = 0
KPG1 220027Z 04013KT 18/02 A2981 RMK A01 T01790016  RH  033%=      5-min Rain = 0
KPG1 220028Z 04013KT 18/02 A2981 RMK A01 T01780015  RH  033%=      5-min Rain = 0
KPG1 220029Z 04013KT 18/02 A2981 RMK A01 T01780015  RH  034%=      5-min Rain = 0
KPG1 220030Z 04013KT 18/02 A2981 RMK A01 T01770015  RH  034%=      5-min Rain = 0
KPG1 220031Z 04014KT 18/02 A2981 RMK A01 T01760015  RH  034%=      5-min Rain = 0
KPG1 220032Z 04014KT 18/02 A2981 RMK A01 T01750015  RH  034%=      5-min Rain = 0
KPG1 220033Z 03013KT 18/02 A2981 RMK A01 T01750015  RH  034%=      5-min Rain = 0
KPG1 220034Z 03014KT 17/02 A2981 RMK A01 T01740015  RH  034%=      5-min Rain = 0
KPG1 220035Z 03015KT 17/02 A2981 RMK A01 T01740015  RH  034%=      5-min Rain = 0
KPG1 220036Z 03014KT 17/02 A2981 RMK A01 T01730015  RH  034%=      5-min Rain = 0
KPG1 220037Z 03015KT 17/02 A2981 RMK A01 T01720015  RH  035%=      5-min Rain = 0
KPG1 220038Z 03015KT 17/02 A2981 RMK A01 T01710015  RH  035%=      5-min Rain = 0
KPG1 220039Z 03014KT 17/02 A2981 RMK A01 T01700015  RH  035%=      5-min Rain = 0
KPG1 220040Z 03016KT 17/02 A2981 RMK A01 T01690015  RH  035%=      5-min Rain = 0
KPG1 220041Z 04014KT 17/01 A2981 RMK A01 T01680014  RH  035%=      5-min Rain = 0
KPG1 220042Z 04016KT 17/01 A2981 RMK A01 T01670013  RH  035%=      5-min Rain = 0
KPG1 220043Z 04017KT 17/01 A2981 RMK A01 T01670013  RH  035%=      5-min Rain = 0
KPG1 220044Z 04017KT 17/01 A2981 RMK A01 T01660013  RH  036%=      5-min Rain = 0
KPG1 220045Z 04016KT 17/01 A2981 RMK A01 T01650013  RH  036%=      5-min Rain = 0
KPG1 220046Z 04016KT 17/01 A2981 RMK A01 T01650013  RH  036%=      5-min Rain = 0
KPG1 220047Z 04017KT 16/01 A2981 RMK A01 T01640013  RH  036%=      5-min Rain = 0
KPG1 220048Z 05017KT 16/01 A2981 RMK A01 T01630013  RH  036%=      5-min Rain = 0
KPG1 220049Z 04019KT 16/01 A2981 RMK A01 T01630013  RH  036%=      5-min Rain = 0
KPG1 220050Z 04017KT 16/01 A2981 RMK A01 T01630013  RH  036%=      5-min Rain = 0
KPG1 220051Z 04017KT 16/01 A2981 RMK A01 T01620013  RH  037%=      5-min Rain = 0
KPG1 220052Z 04016KT 16/01 A2981 RMK A01 T01610013  RH  037%=      5-min Rain = 0
KPG1 220053Z 04017KT 16/01 A2981 RMK A01 T01600013  RH  037%=      5-min Rain = 0
KPG1 220054Z 03016KT 16/01 A2981 RMK A01 T01590013  RH  037%=      5-min Rain = 0
KPG1 220055Z 04017KT 16/01 A2981 RMK A01 T01590013  RH  037%=      5-min Rain = 0
KPG1 220056Z 04017KT 16/01 A2981 RMK A01 T01580013  RH  037%=      5-min Rain = 0
KPG1 220057Z 03015KT 16/01 A2981 RMK A01 T01570013  RH  038%=      5-min Rain = 0
KPG1 220058Z 03015KT 16/01 A2981 RMK A01 T01560014  RH  038%=      5-min Rain = 0
KPG1 220059Z 03017KT 15/01 A2981 RMK A01 T01540013  RH  039%=      5-min Rain = 0
KPG1 220100Z 03017KT 15/01 A2981 RMK A01 T01530013  RH  039%=      5-min Rain = 0
KPG1 220101Z 03017KT 15/01 A2981 RMK A01 T01520013  RH  039%=      5-min Rain = 0
KPG1 220102Z 03017KT 15/01 A2981 RMK A01 T01520013  RH  039%=      5-min Rain = 0
KPG1 220103Z 03017KT 15/01 A2981 RMK A01 T01520013  RH  039%=      5-min Rain = 0
KPG1 220104Z 03019KT 15/01 A2981 RMK A01 T01510013  RH  039%=      5-min Rain = 0
KPG1 220105Z 03019KT 15/01 A2981 RMK A01 T01520012  RH  039%=      5-min Rain = 0
KPG1 220106Z 03019KT 15/01 A2981 RMK A01 T01530012  RH  039%=      5-min Rain = 0
KPG1 220107Z 03019KT 15/01 A2981 RMK A01 T01520012  RH  039%=      5-min Rain = 0
KPG1 220108Z 04017KT 15/01 A2981 RMK A01 T01520012  RH  039%=      5-min Rain = 0
KPG1 220109Z 04017KT 15/01 A2981 RMK A01 T01510012  RH  039%=      5-min Rain = 0
KPG1 220110Z 04017KT 15/01 A2981 RMK A01 T01510012  RH  039%=      5-min Rain = 0
KPG1 220111Z 04017KT 15/01 A2981 RMK A01 T01500012  RH  039%=      5-min Rain = 0
KPG1 220112Z 03016KT 15/01 A2981 RMK A01 T01490012  RH  039%=      5-min Rain = 0
KPG1 220113Z 03017KT 15/01 A2981 RMK A01 T01480013  RH  040%=      5-min Rain = 0
KPG1 220114Z 02017KT 15/01 A2981 RMK A01 T01470013  RH  040%=      5-min Rain = 0
KPG1 220115Z 03018KT 15/01 A2981 RMK A01 T01460013  RH  041%=      5-min Rain = 0
KPG1 220116Z 03018KT 15/01 A2981 RMK A01 T01460014  RH  041%=      5-min Rain = 0
KPG1 220117Z 03018KT 15/01 A2981 RMK A01 T01450013  RH  041%=      5-min Rain = 0
KPG1 220118Z 03017KT 15/01 A2981 RMK A01 T01450013  RH  041%=      5-min Rain = 0
KPG1 220119Z 04016KT 15/01 A2981 RMK A01 T01450013  RH  041%=      5-min Rain = 0
KPG1 220120Z 03018KT 14/01 A2981 RMK A01 T01440013  RH  041%=      5-min Rain = 0
KPG1 220121Z 03018KT 14/01 A2981 RMK A01 T01440013  RH  041%=      5-min Rain = 0
KPG1 220122Z 03016KT 14/01 A2981 RMK A01 T01440014  RH  041%=      5-min Rain = 0
KPG1 220123Z 03014KT 14/01 A2982 RMK A01 T01430014  RH  042%=      5-min Rain = 0
KPG1 220124Z 02017KT 14/01 A2981 RMK A01 T01410014  RH  042%=      5-min Rain = 0
KPG1 220125Z 03016KT 14/01 A2981 RMK A01 T01410013  RH  042%=      5-min Rain = 0
KPG1 220126Z 03016KT 14/01 A2981 RMK A01 T01410014  RH  042%=      5-min Rain = 0
KPG1 220127Z 03016KT 14/01 A2981 RMK A01 T01400014  RH  042%=      5-min Rain = 0
KPG1 220128Z 03017KT 14/01 A2981 RMK A01 T01400014  RH  042%=      5-min Rain = 0
KPG1 220129Z 03016KT 14/01 A2981 RMK A01 T01390014  RH  043%=      5-min Rain = 0
KPG1 220130Z 03017KT 14/01 A2981 RMK A01 T01380014  RH  043%=      5-min Rain = 0
KPG1 220131Z 03017KT 14/01 A2981 RMK A01 T01370013  RH  043%=      5-min Rain = 0
KPG1 220132Z 03017KT 14/01 A2981 RMK A01 T01380013  RH  043%=      5-min Rain = 0
KPG1 220133Z 02018KT 14/01 A2981 RMK A01 T01380013  RH  043%=      5-min Rain = 0
KPG1 220134Z 03019KT 14/01 A2981 RMK A01 T01380013  RH  043%=      5-min Rain = 0
KPG1 220135Z 02020KT 14/01 A2981 RMK A01 T01370012  RH  042%=      5-min Rain = 0
KPG1 220136Z 02019KT 14/01 A2981 RMK A01 T01380012  RH  042%=      5-min Rain = 0
KPG1 220137Z 02018KT 14/01 A2981 RMK A01 T01380012  RH  042%=      5-min Rain = 0
KPG1 220138Z 02019KT 14/01 A2981 RMK A01 T01380012  RH  042%=      5-min Rain = 0
KPG1 220139Z 02018KT 14/01 A2981 RMK A01 T01380011  RH  042%=      5-min Rain = 0
KPG1 220140Z 01018KT 14/01 A2981 RMK A01 T01390011  RH  042%=      5-min Rain = 0
KPG1 220141Z 01018KT 14/01 A2981 RMK A01 T01400010  RH  041%=      5-min Rain = 0
KPG1 220142Z 01018KT 14/01 A2981 RMK A01 T01420010  RH  041%=      5-min Rain = 0
KPG1 220143Z 01019KT 14/01 A2981 RMK A01 T01430010  RH  040%=      5-min Rain = 0
KPG1 220144Z 01017KT 14/01 A298 RMK A01 T01430010  RH  040%=      5-min Rain = 0
KPG1 220145Z 01017KT 14/01 A298 RMK A01 T01430010  RH  040%=      5-min Rain = 0
KPG1 220146Z 01017KT 14/01 A2981 RMK A01 T01430010  RH  040%=      5-min Rain = 0
KPG1 220147Z 01017KT 14/01 A2981 RMK A01 T01430010  RH  040%=      5-min Rain = 0
KPG1 220148Z 01019KT 14/01 A298 RMK A01 T01430010  RH  040%=      5-min Rain = 0
KPG1 220149Z 01019KT 14/01 A298 RMK A01 T01430010  RH  040%=      5-min Rain = 0
KPG1 220150Z 02016KT 14/01 A2981 RMK A01 T01430010  RH  040%=      5-min Rain = 0
KPG1 220151Z 01018KT 14/01 A2981 RMK A01 T01420010  RH  041%=      5-min Rain = 0
KPG1 220152Z 01019KT 14/01 A2981 RMK A01 T01410009  RH  041%=      5-min Rain = 0
KPG1 220153Z 01019KT 14/01 A2981 RMK A01 T01410010  RH  041%=      5-min Rain = 0
KPG1 220154Z 01017KT 14/01 A2981 RMK A01 T01410009  RH  041%=      5-min Rain = 0
KPG1 220155Z 01019G24KT 14/01 A2981 RMK A01 T01410009  RH  041%=      5-min Rain = 0
KPG1 220156Z 01019KT 14/01 A2981 RMK A01 T01410010  RH  041%=      5-min Rain = 0
KPG1 220157Z 01017KT 14/01 A2981 RMK A01 T01420009  RH  040%=      5-min Rain = 0
KPG1 220158Z 01017KT 14/01 A2981 RMK A01 T01420010  RH  041%=      5-min Rain = 0
KPG1 220159Z 01018KT 14/01 A2981 RMK A01 T01410010  RH  041%=      5-min Rain = 0
KPG1 220200Z 01018KT 14/01 A2981 RMK A01 T01410010  RH  041%=      5-min Rain = 0
KPG1 220201Z 01018KT 14/01 A2981 RMK A01 T01410010  RH  041%=      5-min Rain = 0
KPG1 220202Z 01016KT 14/01 A2981 RMK A01 T01410010  RH  041%=      5-min Rain = 0
KPG1 220203Z 02018KT 14/01 A2981 RMK A01 T01410010  RH  041%=      5-min Rain = 0
KPG1 220204Z 01019KT 14/01 A2981 RMK A01 T01410011  RH  041%=      5-min Rain = 0
KPG1 220205Z 01020KT 14/01 A2981 RMK A01 T01410011  RH  041%=      5-min Rain = 0
KPG1 220206Z 02019KT 14/01 A2981 RMK A01 T01410011  RH  041%=      5-min Rain = 0
KPG1 220207Z 02018KT 14/01 A2981 RMK A01 T01410011  RH  041%=      5-min Rain = 0
KPG1 220208Z 02016KT 14/01 A2981 RMK A01 T01410011  RH  041%=      5-min Rain = 0
KPG1 220209Z 01019KT 14/01 A2981 RMK A01 T01400012  RH  041%=      5-min Rain = 0
KPG1 220210Z 01017KT 14/01 A2981 RMK A01 T01400012  RH  042%=      5-min Rain = 0
KPG1 220211Z 02017KT 14/01 A2981 RMK A01 T01400012  RH  042%=      5-min Rain = 0
KPG1 220212Z 01018KT 14/01 A2981 RMK A01 T01390012  RH  042%=      5-min Rain = 0
KPG1 220213Z 01019KT 14/01 A2981 RMK A01 T01400012  RH  042%=      5-min Rain = 0
KPG1 220214Z 02019KT 14/01 A2981 RMK A01 T01400012  RH  042%=      5-min Rain = 0
KPG1 220215Z 02018KT 14/01 A2981 RMK A01 T01390012  RH  042%=      5-min Rain = 0
KPG1 220216Z 01018KT 14/01 A2981 RMK A01 T01390013  RH  042%=      5-min Rain = 0
KPG1 220217Z 02018KT 14/01 A298 RMK A01 T01390012  RH  042%=      5-min Rain = 0
KPG1 220218Z 02017KT 14/01 A2981 RMK A01 T01390013  RH  042%=      5-min Rain = 0
KPG1 220219Z 02017KT 14/01 A2981 RMK A01 T01390012  RH  042%=      5-min Rain = 0
KPG1 220220Z 02016KT 14/01 A2981 RMK A01 T01390013  RH  042%=      5-min Rain = 0
KPG1 220221Z 02017KT 14/01 A2981 RMK A01 T01390013  RH  042%=      5-min Rain = 0
KPG1 220222Z 02019KT 14/01 A2981 RMK A01 T01390013  RH  042%=      5-min Rain = 0
KPG1 220223Z 02018KT 14/01 A2981 RMK A01 T01390013  RH  042%=      5-min Rain = 0
KPG1 220224Z 02017KT 14/01 A2981 RMK A01 T01390013  RH  042%=      5-min Rain = 0
KPG1 220225Z 02018KT 14/01 A298 RMK A01 T01390014  RH  043%=      5-min Rain = 0
KPG1 220226Z 01019KT 14/01 A298 RMK A01 T01380013  RH  043%=      5-min Rain = 0
KPG1 220227Z 01017KT 14/01 A298 RMK A01 T01380013  RH  043%=      5-min Rain = 0
KPG1 220228Z 01017KT 14/01 A298 RMK A01 T01380014  RH  043%=      5-min Rain = 0
KPG1 220229Z 01019KT 14/01 A298 RMK A01 T01380014  RH  043%=      5-min Rain = 0
KPG1 220230Z 01019KT 14/01 A298 RMK A01 T01380014  RH  043%=      5-min Rain = 0
KPG1 220231Z 02017KT 14/01 A298 RMK A01 T01380014  RH  043%=      5-min Rain = 0
KPG1 220232Z 01017KT 14/01 A2981 RMK A01 T01380014  RH  043%=      5-min Rain = 0
KPG1 220233Z 01017KT 14/02 A2981 RMK A01 T01390015  RH  043%=      5-min Rain = 0
KPG1 220234Z 01019KT 14/02 A298 RMK A01 T01380015  RH  043%=      5-min Rain = 0
KPG1 220235Z 02017KT 14/02 A2981 RMK A01 T01380015  RH  043%=      5-min Rain = 0
KPG1 220236Z 02018KT 14/02 A2981 RMK A01 T01380015  RH  043%=      5-min Rain = 0
KPG1 220237Z 02019KT 14/02 A2981 RMK A01 T01380015  RH  043%=      5-min Rain = 0
KPG1 220238Z 02018KT 14/02 A2981 RMK A01 T01380015  RH  043%=      5-min Rain = 0
KPG1 220239Z 01019KT 14/02 A2981 RMK A01 T01380015  RH  043%=      5-min Rain = 0
KPG1 220240Z 01020KT 14/02 A298 RMK A01 T01380016  RH  044%=      5-min Rain = 0
KPG1 220241Z 00020KT 14/02 A298 RMK A01 T01380016  RH  044%=      5-min Rain = 0
KPG1 220242Z 01019KT 14/02 A2981 RMK A01 T01380016  RH  043%=      5-min Rain = 0
KPG1 220243Z 02019KT 14/02 A2981 RMK A01 T01380016  RH  043%=      5-min Rain = 0
KPG1 220244Z 02017KT 14/02 A2981 RMK A01 T01380016  RH  044%=      5-min Rain = 0
KPG1 220245Z 03018KT 14/02 A2981 RMK A01 T01370016  RH  044%=      5-min Rain = 0
KPG1 220246Z 01018KT 14/02 A2981 RMK A01 T01360016  RH  044%=      5-min Rain = 0
KPG1 220247Z 01018KT 14/02 A2981 RMK A01 T01360016  RH  044%=      5-min Rain = 0
KPG1 220248Z 01017KT 14/02 A2981 RMK A01 T01360017  RH  044%=      5-min Rain = 0
KPG1 220249Z 01017G22KT 14/02 A2981 RMK A01 T01370017  RH  044%=      5-min Rain = 0
KPG1 220250Z 01020KT 14/02 A2981 RMK A01 T01370017  RH  044%=      5-min Rain = 0
KPG1 220251Z 01017KT 14/02 A2981 RMK A01 T01370017  RH  044%=      5-min Rain = 0
KPG1 220252Z 01018KT 14/02 A2981 RMK A01 T01370017  RH  044%=      5-min Rain = 0
KPG1 220253Z 01018KT 14/02 A2981 RMK A01 T01370018  RH  044%=      5-min Rain = 0
KPG1 220254Z 01017KT 14/02 A2981 RMK A01 T01360018  RH  044%=      5-min Rain = 0
KPG1 220255Z 01018KT 14/02 A2981 RMK A01 T01360018  RH  044%=      5-min Rain = 0
KPG1 220256Z 01019KT 14/02 A2981 RMK A01 T01370018  RH  044%=      5-min Rain = 0
KPG1 220257Z 02020KT 14/02 A2981 RMK A01 T01360017  RH  044%=      5-min Rain = 0
KPG1 220258Z 01017KT 14/02 A2981 RMK A01 T01360018  RH  045%=      5-min Rain = 0
KPG1 220259Z 02016KT 14/02 A2981 RMK A01 T01360017  RH  045%=      5-min Rain = 0
KPG1 220300Z 02017KT 14/02 A2981 RMK A01 T01360018  RH  045%=      5-min Rain = 0
KPG1 220301Z 02016KT 14/02 A2981 RMK A01 T01350018  RH  045%=      5-min Rain = 0
KPG1 220302Z 01015KT 13/02 A2981 RMK A01 T01340017  RH  045%=      5-min Rain = 0
KPG1 220303Z 01018KT 13/02 A2981 RMK A01 T01340018  RH  045%=      5-min Rain = 0
KPG1 220304Z 02016KT 13/02 A2981 RMK A01 T01340018  RH  045%=      5-min Rain = 0
KPG1 220305Z 02016KT 13/02 A298 RMK A01 T01340018  RH  045%=      5-min Rain = 0
KPG1 220306Z 02017KT 14/02 A298 RMK A01 T01350018  RH  045%=      5-min Rain = 0
KPG1 220307Z 02018KT 14/02 A298 RMK A01 T01350018  RH  045%=      5-min Rain = 0
KPG1 220308Z 01018KT 14/02 A298 RMK A01 T01350018  RH  045%=      5-min Rain = 0
KPG1 220309Z 01016KT 13/02 A298 RMK A01 T01340018  RH  045%=      5-min Rain = 0
KPG1 220310Z 01017KT 13/02 A2981 RMK A01 T01340019  RH  046%=      5-min Rain = 0
KPG1 220311Z 01015KT 13/02 A2981 RMK A01 T01340019  RH  046%=      5-min Rain = 0
KPG1 220312Z 01018KT 13/02 A2981 RMK A01 T01340019  RH  046%=      5-min Rain = 0
KPG1 220313Z 01016KT 13/02 A2981 RMK A01 T01340019  RH  046%=      5-min Rain = 0
KPG1 220314Z 02016KT 13/02 A2981 RMK A01 T01340020  RH  046%=      5-min Rain = 0
KPG1 220315Z 01015KT 13/02 A2981 RMK A01 T01340020  RH  046%=      5-min Rain = 0
KPG1 220316Z 01016KT 13/02 A2981 RMK A01 T01340020  RH  046%=      5-min Rain = 0
KPG1 220317Z 01017KT 13/02 A2981 RMK A01 T01340020  RH  046%=      5-min Rain = 0
KPG1 220318Z 01018KT 13/02 A2981 RMK A01 T01330020  RH  046%=      5-min Rain = 0
KPG1 220319Z 01018KT 13/02 A2981 RMK A01 T01330020  RH  046%=      5-min Rain = 0
KPG1 220320Z 02015KT 13/02 A2981 RMK A01 T01330020  RH  046%=      5-min Rain = 0
KPG1 220321Z 02014KT 13/02 A2981 RMK A01 T01330020  RH  046%=      5-min Rain = 0
KPG1 220322Z 02015KT 13/02 A2981 RMK A01 T01320020  RH  046%=      5-min Rain = 0
KPG1 220323Z 02015KT 13/02 A2981 RMK A01 T01320020  RH  047%=      5-min Rain = 0
KPG1 220324Z 02016KT 13/02 A2981 RMK A01 T01320020  RH  046%=      5-min Rain = 0
KPG1 220325Z 01018KT 13/02 A2981 RMK A01 T01320020  RH  046%=      5-min Rain = 0
KPG1 220326Z 02016KT 13/02 A2981 RMK A01 T01330020  RH  046%=      5-min Rain = 0
KPG1 220327Z 02016KT 13/02 A298 RMK A01 T01330020  RH  046%=      5-min Rain = 0
KPG1 220328Z 02015KT 13/02 A298 RMK A01 T01330020  RH  046%=      5-min Rain = 0
KPG1 220329Z 01017KT 13/02 A298 RMK A01 T01330020  RH  046%=      5-min Rain = 0
KPG1 220330Z 01017KT 13/02 A298 RMK A01 T01330020  RH  046%=      5-min Rain = 0
KPG1 220331Z 02017KT 13/02 A298 RMK A01 T01330020  RH  046%=      5-min Rain = 0
KPG1 220332Z 02016KT 13/02 A298 RMK A01 T01330020  RH  046%=      5-min Rain = 0
KPG1 220333Z 02017KT 13/02 A298 RMK A01 T01320020  RH  046%=      5-min Rain = 0
KPG1 220334Z 02015KT 13/02 A298 RMK A01 T01320021  RH  047%=      5-min Rain = 0
KPG1 220335Z 02017KT 13/02 A298 RMK A01 T01320020  RH  047%=      5-min Rain = 0
KPG1 220336Z 02016KT 13/02 A298 RMK A01 T01320020  RH  047%=      5-min Rain = 0
KPG1 220337Z 02017KT 13/02 A298 RMK A01 T01320021  RH  047%=      5-min Rain = 0
KPG1 220338Z 03016KT 13/02 A298 RMK A01 T01310021  RH  047%=      5-min Rain = 0
KPG1 220339Z 03015KT 13/02 A298 RMK A01 T01300020  RH  047%=      5-min Rain = 0
KPG1 220340Z 03017KT 13/02 A298 RMK A01 T01280020  RH  048%=      5-min Rain = 0
KPG1 220341Z 03016KT 13/02 A298 RMK A01 T01270021  RH  048%=      5-min Rain = 0
KPG1 220342Z 02016KT 13/02 A298 RMK A01 T01270021  RH  049%=      5-min Rain = 0
KPG1 220343Z 03016KT 13/02 A298 RMK A01 T01270021  RH  049%=      5-min Rain = 0
KPG1 220344Z 03015KT 13/02 A298 RMK A01 T01270021  RH  049%=      5-min Rain = 0
KPG1 220345Z 03014KT 13/02 A298 RMK A01 T01260021  RH  049%=      5-min Rain = 0
KPG1 220346Z 03014KT 12/02 A298 RMK A01 T01240021  RH  049%=      5-min Rain = 0
KPG1 220347Z 03014KT 12/02 A298 RMK A01 T01240021  RH  049%=      5-min Rain = 0
KPG1 220348Z 03015KT 12/02 A298 RMK A01 T01230021  RH  050%=      5-min Rain = 0
KPG1 220349Z 03015KT 12/02 A298 RMK A01 T01230021  RH  050%=      5-min Rain = 0
KPG1 220350Z 03016KT 12/02 A298 RMK A01 T01220021  RH  050%=      5-min Rain = 0
KPG1 220351Z 02017KT 12/02 A298 RMK A01 T01240021  RH  050%=      5-min Rain = 0
KPG1 220352Z 02015KT 13/02 A298 RMK A01 T01260022  RH  049%=      5-min Rain = 0
KPG1 220353Z 03015KT 13/02 A298 RMK A01 T01270022  RH  049%=      5-min Rain = 0
KPG1 220354Z 02015G20KT 13/02 A298 RMK A01 T01280022  RH  048%=      5-min Rain = 0
KPG1 220355Z 02016KT 13/02 A298 RMK A01 T01270021  RH  048%=      5-min Rain = 0
KPG1 220356Z 02018KT 13/02 A298 RMK A01 T01270022  RH  049%=      5-min Rain = 0
KPG1 220357Z 02016KT 13/02 A298 RMK A01 T01280022  RH  049%=      5-min Rain = 0
KPG1 220358Z 02015KT 13/02 A298 RMK A01 T01290022  RH  048%=      5-min Rain = 0
KPG1 220359Z 03015KT 13/02 A298 RMK A01 T01290022  RH  048%=      5-min Rain = 0
KPG1 220400Z 04014KT 13/02 A298 RMK A01 T01290022  RH  048%=      5-min Rain = 0
KPG1 220401Z 02014KT 13/02 A298 RMK A01 T01280022  RH  048%=      5-min Rain = 0
KPG1 220402Z 02014KT 13/02 A298 RMK A01 T01280022  RH  049%=      5-min Rain = 0
KPG1 220403Z 03014KT 13/02 A298 RMK A01 T01280022  RH  049%=      5-min Rain = 0
KPG1 220404Z 02014KT 13/02 A298 RMK A01 T01280022  RH  049%=      5-min Rain = 0
KPG1 220405Z 02013KT 13/02 A298 RMK A01 T01280022  RH  048%=      5-min Rain = 0
KPG1 220406Z 02015KT 13/02 A298 RMK A01 T01280022  RH  048%=      5-min Rain = 0
KPG1 220407Z 02014KT 13/02 A2979 RMK A01 T01280022  RH  048%=      5-min Rain = 0
KPG1 220408Z 02014KT 13/02 A2979 RMK A01 T01280023  RH  048%=      5-min Rain = 0
KPG1 220409Z 02014KT 13/02 A2979 RMK A01 T01290023  RH  048%=      5-min Rain = 0
KPG1 220410Z 01014KT 13/02 A2979 RMK A01 T01280022  RH  048%=      5-min Rain = 0
KPG1 220411Z 01015KT 13/02 A2979 RMK A01 T01280023  RH  049%=      5-min Rain = 0
KPG1 220412Z 01017KT 13/02 A2979 RMK A01 T01280023  RH  049%=      5-min Rain = 0
KPG1 220413Z 02015KT 13/02 A298 RMK A01 T01290023  RH  049%=      5-min Rain = 0
KPG1 220414Z 01015KT 13/02 A298 RMK A01 T01290023  RH  048%=      5-min Rain = 0
KPG1 220415Z 01015KT 13/02 A298 RMK A01 T01290023  RH  048%=      5-min Rain = 0
KPG1 220416Z 02016KT 13/02 A298 RMK A01 T01290023  RH  049%=      5-min Rain = 0
KPG1 220417Z 02015KT 13/02 A298 RMK A01 T01290023  RH  049%=      5-min Rain = 0
KPG1 220418Z 02014KT 13/02 A298 RMK A01 T01280023  RH  049%=      5-min Rain = 0
KPG1 220419Z 02014KT 13/02 A298 RMK A01 T01280023  RH  049%=      5-min Rain = 0
KPG1 220420Z 02015KT 13/02 A298 RMK A01 T01280024  RH  049%=      5-min Rain = 0
KPG1 220421Z 02013KT 13/02 A298 RMK A01 T01280023  RH  049%=      5-min Rain = 0
KPG1 220422Z 01012KT 13/02 A298 RMK A01 T01280023  RH  049%=      5-min Rain = 0
KPG1 220423Z 02014KT 13/02 A298 RMK A01 T01280024  RH  049%=      5-min Rain = 0
KPG1 220424Z 02013KT 13/02 A298 RMK A01 T01280023  RH  049%=      5-min Rain = 0
KPG1 220425Z 02013KT 13/02 A2979 RMK A01 T01280023  RH  049%=      5-min Rain = 0
KPG1 220426Z 02013KT 13/02 A2979 RMK A01 T01280023  RH  049%=      5-min Rain = 0
KPG1 220427Z 02012KT 13/02 A2979 RMK A01 T01280023  RH  049%=      5-min Rain = 0
KPG1 220428Z 03012KT 13/02 A2979 RMK A01 T01280023  RH  049%=      5-min Rain = 0
KPG1 220429Z 03011KT 13/02 A2979 RMK A01 T01260023  RH  049%=      5-min Rain = 0
KPG1 220430Z 03012KT 12/02 A2979 RMK A01 T01230022  RH  050%=      5-min Rain = 0
KPG1 220431Z 02013KT 12/02 A2979 RMK A01 T01210022  RH  051%=      5-min Rain = 0
KPG1 220432Z 03012KT 12/02 A2979 RMK A01 T01200023  RH  051%=      5-min Rain = 0
KPG1 220433Z 03012KT 12/02 A2979 RMK A01 T01190023  RH  052%=      5-min Rain = 0
KPG1 220434Z 03011KT 12/02 A2979 RMK A01 T01190023  RH  052%=      5-min Rain = 0
KPG1 220435Z 03011KT 12/02 A2979 RMK A01 T01190023  RH  052%=      5-min Rain = 0
KPG1 220436Z 03012KT 12/02 A2979 RMK A01 T01190023  RH  052%=      5-min Rain = 0
KPG1 220437Z 02013KT 12/02 A2979 RMK A01 T01220024  RH  051%=      5-min Rain = 0
KPG1 220438Z 01013KT 13/02 A2979 RMK A01 T01250024  RH  050%=      5-min Rain = 0
KPG1 220439Z 01012KT 13/02 A2979 RMK A01 T01270024  RH  049%=      5-min Rain = 0
KPG1 220440Z 01012KT 13/02 A2979 RMK A01 T01280023  RH  049%=      5-min Rain = 0
KPG1 220441Z 02011KT 13/02 A2979 RMK A01 T01290023  RH  049%=      5-min Rain = 0
KPG1 220442Z 01010KT 13/02 A2979 RMK A01 T01290023  RH  048%=      5-min Rain = 0
KPG1 220443Z 01013KT 13/02 A2979 RMK A01 T01290023  RH  048%=      5-min Rain = 0
KPG1 220444Z 02012KT 13/02 A2979 RMK A01 T01300023  RH  048%=      5-min Rain = 0
KPG1 220445Z 02011KT 13/02 A2979 RMK A01 T01300022  RH  048%=      5-min Rain = 0
KPG1 220446Z 02012KT 13/02 A2979 RMK A01 T01300023  RH  048%=      5-min Rain = 0
KPG1 220447Z 01012KT 13/02 A2979 RMK A01 T01300022  RH  048%=      5-min Rain = 0
KPG1 220448Z 01012KT 13/02 A2979 RMK A01 T01310023  RH  048%=      5-min Rain = 0
KPG1 220449Z 01012KT 13/02 A2979 RMK A01 T01320023  RH  048%=      5-min Rain = 0
KPG1 220450Z 01012KT 13/02 A2979 RMK A01 T01310022  RH  048%=      5-min Rain = 0
KPG1 220451Z 02013KT 13/02 A2979 RMK A01 T01310022  RH  048%=      5-min Rain = 0
KPG1 220452Z 01012KT 13/02 A2979 RMK A01 T01310022  RH  048%=      5-min Rain = 0
KPG1 220453Z 01012KT 13/02 A2979 RMK A01 T01310022  RH  048%=      5-min Rain = 0
KPG1 220454Z 02012KT 13/02 A2979 RMK A01 T01310022  RH  048%=      5-min Rain = 0
KPG1 220455Z 01010KT 13/02 A2979 RMK A01 T01320022  RH  047%=      5-min Rain = 0
KPG1 220456Z 01010KT 13/02 A2979 RMK A01 T01320022  RH  047%=      5-min Rain = 0
KPG1 220457Z 02012KT 13/02 A2979 RMK A01 T01320022  RH  047%=      5-min Rain = 0
KPG1 220458Z 02011KT 13/02 A2979 RMK A01 T01320022  RH  047%=      5-min Rain = 0
KPG1 220459Z 02010KT 13/02 A2979 RMK A01 T01320022  RH  047%=      5-min Rain = 0
KPG1 220500Z 02012KT 13/02 A2979 RMK A01 T01320022  RH  047%=      5-min Rain = 0
KPG1 220501Z 03011KT 13/02 A2979 RMK A01 T01320022  RH  047%=      5-min Rain = 0
KPG1 220502Z 03010KT 13/02 A2979 RMK A01 T01330022  RH  047%=      5-min Rain = 0
KPG1 220503Z 02010KT 13/02 A2979 RMK A01 T01330022  RH  047%=      5-min Rain = 0
KPG1 220504Z 02009KT 13/02 A2979 RMK A01 T01320022  RH  047%=      5-min Rain = 0
KPG1 220505Z 02009KT 13/02 A2979 RMK A01 T01320022  RH  047%=      5-min Rain = 0
KPG1 220506Z 01011KT 13/02 A2979 RMK A01 T01320022  RH  047%=      5-min Rain = 0
KPG1 220507Z 01011KT 13/02 A2979 RMK A01 T01320022  RH  047%=      5-min Rain = 0
KPG1 220508Z 02012KT 13/02 A2979 RMK A01 T01320022  RH  047%=      5-min Rain = 0
KPG1 220509Z 01011KT 13/02 A2979 RMK A01 T01330022  RH  047%=      5-min Rain = 0
KPG1 220510Z 02011KT 13/02 A2979 RMK A01 T01330022  RH  047%=      5-min Rain = 0
KPG1 220511Z 02011KT 13/02 A2979 RMK A01 T01340022  RH  047%=      5-min Rain = 0
KPG1 220512Z 03012KT 13/02 A2979 RMK A01 T01340022  RH  047%=      5-min Rain = 0
KPG1 220513Z 02011KT 13/02 A2979 RMK A01 T01340021  RH  046%=      5-min Rain = 0
KPG1 220514Z 01012KT 13/02 A2979 RMK A01 T01340022  RH  046%=      5-min Rain = 0
KPG1 220515Z 02011KT 14/02 A2979 RMK A01 T01350022  RH  046%=      5-min Rain = 0
KPG1 220516Z 02012KT 14/02 A2979 RMK A01 T01350022  RH  046%=      5-min Rain = 0
KPG1 220517Z 03010KT 14/02 A2979 RMK A01 T01350022  RH  046%=      5-min Rain = 0
KPG1 220518Z 02010KT 13/02 A2979 RMK A01 T01330021  RH  047%=      5-min Rain = 0
KPG1 220519Z 02011KT 13/02 A2979 RMK A01 T01320021  RH  047%=      5-min Rain = 0
KPG1 220520Z 03010KT 13/02 A2979 RMK A01 T01320022  RH  047%=      5-min Rain = 0
KPG1 220521Z 03011KT 13/02 A2979 RMK A01 T01300021  RH  047%=      5-min Rain = 0
KPG1 220522Z 04010KT 13/02 A2979 RMK A01 T01280021  RH  048%=      5-min Rain = 0
KPG1 220523Z 04009KT 13/02 A2979 RMK A01 T01270021  RH  049%=      5-min Rain = 0
KPG1 220524Z 03009KT 13/02 A2979 RMK A01 T01250021  RH  049%=      5-min Rain = 0
KPG1 220525Z 04008KT 12/02 A2979 RMK A01 T01240022  RH  050%=      5-min Rain = 0
KPG1 220526Z 03009KT 12/02 A2979 RMK A01 T01230022  RH  050%=      5-min Rain = 0
KPG1 220527Z 04009KT 12/02 A2979 RMK A01 T01230022  RH  050%=      5-min Rain = 0
KPG1 220528Z 05008KT 12/02 A2979 RMK A01 T01220022  RH  050%=      5-min Rain = 0
KPG1 220529Z 05008KT 12/02 A2979 RMK A01 T01220022  RH  050%=      5-min Rain = 0
KPG1 220530Z 05008KT 12/02 A2979 RMK A01 T01220022  RH  051%=      5-min Rain = 0
KPG1 220531Z 05009KT 12/02 A2979 RMK A01 T01210022  RH  051%=      5-min Rain = 0
KPG1 220532Z 05009KT 12/02 A2979 RMK A01 T01210022  RH  051%=      5-min Rain = 0
KPG1 220533Z 05008KT 12/02 A2979 RMK A01 T01210022  RH  051%=      5-min Rain = 0
KPG1 220534Z 05010KT 12/02 A2979 RMK A01 T01210022  RH  051%=      5-min Rain = 0
KPG1 220535Z 05009KT 12/02 A2979 RMK A01 T01220022  RH  050%=      5-min Rain = 0
KPG1 220536Z 05010KT 12/02 A2979 RMK A01 T01230022  RH  050%=      5-min Rain = 0
KPG1 220537Z 05009KT 12/02 A2979 RMK A01 T01240022  RH  050%=      5-min Rain = 0
KPG1 220538Z 05008KT 12/02 A2979 RMK A01 T01240022  RH  050%=      5-min Rain = 0
KPG1 220539Z 04008KT 12/02 A2979 RMK A01 T01220022  RH  050%=      5-min Rain = 0
KPG1 220540Z 04008KT 12/02 A2979 RMK A01 T01190021  RH  051%=      5-min Rain = 0
KPG1 220541Z 04007KT 12/02 A2979 RMK A01 T01170021  RH  052%=      5-min Rain = 0
KPG1 220542Z 04007KT 12/02 A2979 RMK A01 T01160022  RH  052%=      5-min Rain = 0
KPG1 220543Z 03007KT 12/02 A2979 RMK A01 T01160022  RH  053%=      5-min Rain = 0
KPG1 220544Z 03007KT 12/02 A2979 RMK A01 T01150022  RH  053%=      5-min Rain = 0
KPG1 220545Z 03007KT 12/02 A2979 RMK A01 T01160022  RH  053%=      5-min Rain = 0
KPG1 220546Z 04008KT 12/02 A2979 RMK A01 T01180022  RH  052%=      5-min Rain = 0
KPG1 220547Z 04008KT 12/02 A2979 RMK A01 T01190022  RH  051%=      5-min Rain = 0
KPG1 220548Z 05008KT 12/02 A2979 RMK A01 T01190022  RH  052%=      5-min Rain = 0
KPG1 220549Z 04006KT 12/02 A2979 RMK A01 T01160022  RH  052%=      5-min Rain = 0
KPG1 220550Z 04007KT 12/02 A2979 RMK A01 T01150022  RH  053%=      5-min Rain = 0
KPG1 220551Z 05008KT 12/02 A2979 RMK A01 T01150022  RH  053%=      5-min Rain = 0
KPG1 220552Z 05007KT 11/02 A2979 RMK A01 T01140022  RH  053%=      5-min Rain = 0
KPG1 220553Z 05007KT 11/02 A2979 RMK A01 T01130022  RH  054%=      5-min Rain = 0
KPG1 220554Z 05006KT 11/02 A2979 RMK A01 T01130022  RH  054%=      5-min Rain = 0
KPG1 220555Z 04005KT 11/02 A298 RMK A01 T01130022  RH  054%=      5-min Rain = 0
KPG1 220556Z 03006KT 11/02 A298 RMK A01 T01120022  RH  054%=      5-min Rain = 0
KPG1 220557Z 04006KT 11/02 A298 RMK A01 T01110022  RH  054%=      5-min Rain = 0
KPG1 220558Z 05007KT 11/02 A2979 RMK A01 T01110022  RH  054%=      5-min Rain = 0
KPG1 220559Z 05007KT 11/02 A298 RMK A01 T01110022  RH  054%=      5-min Rain = 0

Page generated in 0.1219 seconds.